Wetterdaten: Montag, 14.03.2022
Datum Zeit Temp. Aussen Temp. o. S. Temp +5cm Feuchte Auss Luftdruck Regen Sonnenschein Regendauer Solar Windben Empfang
14.03.2022 00:00 11,2 C 10,0 C 6,1 C 75 % 1017,6 hPa 0,0 l/m 0 min 0 min 0 W/m 3,2 km/h (1 Bft) 100,00 %
14.03.2022 00:02 11,2 C 10,0 C 6,1 C 75 % 1017,7 hPa 0,0 l/m 0 min 0 min 0 W/m 3,2 km/h (1 Bft) 100,00 %
14.03.2022 00:04 11,2 C 10,0 C 6,1 C 76 % 1017,6 hPa 0,0 l/m 0 min 0 min 0 W/m 3,2 km/h (1 Bft) 100,00 %
14.03.2022 00:08 11,1 C 10,0 C 6,1 C 76 % 1017,7 hPa 0,0 l/m 0 min 4 min 0 W/m 6,4 km/h (2 Bft) 100,00 %
14.03.2022 00:10 11,1 C 10,0 C 6,1 C 76 % 1017,8 hPa 0,0 l/m 0 min 0 min 0 W/m 3,2 km/h (1 Bft) 100,00 %
14.03.2022 00:12 11,0 C 10,0 C 6,1 C 76 % 1017,8 hPa 0,0 l/m 0 min 0 min 0 W/m 12,9 km/h (3 Bft) 97,87 %
14.03.2022 00:14 11,0 C 10,0 C 6,1 C 77 % 1017,9 hPa 0,0 l/m 0 min 0 min 0 W/m 6,4 km/h (2 Bft) 100,00 %
14.03.2022 00:16 10,9 C 10,0 C 6,1 C 77 % 1017,9 hPa 0,0 l/m 0 min 0 min 0 W/m 6,4 km/h (2 Bft) 100,00 %
14.03.2022 00:18 10,9 C 10,0 C 6,1 C 77 % 1017,9 hPa 0,0 l/m 0 min 2 min 0 W/m 12,9 km/h (3 Bft) 100,00 %
14.03.2022 00:20 10,9 C 10,0 C 6,1 C 78 % 1017,9 hPa 0,0 l/m 0 min 2 min 0 W/m 12,9 km/h (3 Bft) 100,00 %
14.03.2022 00:22 10,9 C 10,0 C 6,1 C 78 % 1017,9 hPa 0,0 l/m 0 min 0 min 0 W/m 9,7 km/h (2 Bft) 97,83 %
14.03.2022 00:24 10,8 C 10,0 C 6,1 C 78 % 1018,0 hPa 0,0 l/m 0 min 0 min 0 W/m 16,1 km/h (3 Bft) 97,87 %
14.03.2022 00:26 10,8 C 10,0 C 6,1 C 78 % 1018,0 hPa 0,0 l/m 0 min 0 min 0 W/m 6,4 km/h (2 Bft) 97,87 %
14.03.2022 00:28 10,8 C 10,0 C 6,1 C 78 % 1018,0 hPa 0,0 l/m 0 min 0 min 0 W/m 6,4 km/h (2 Bft) 97,87 %
14.03.2022 00:30 10,8 C 10,0 C 6,1 C 78 % 1017,9 hPa 0,0 l/m 0 min 0 min 0 W/m 6,4 km/h (2 Bft) 97,87 %
14.03.2022 00:32 10,8 C 10,0 C 6,1 C 79 % 1017,9 hPa 0,0 l/m 0 min 2 min 0 W/m 6,4 km/h (2 Bft) 95,74 %
14.03.2022 00:34 10,8 C 10,0 C 6,1 C 79 % 1017,9 hPa 0,0 l/m 0 min 2 min 0 W/m 6,4 km/h (2 Bft) 97,83 %
14.03.2022 00:36 10,7 C 10,0 C 5,6 C 79 % 1017,9 hPa 0,0 l/m 0 min 0 min 0 W/m 6,4 km/h (2 Bft) 97,87 %
14.03.2022 00:38 10,7 C 10,0 C 5,6 C 79 % 1017,9 hPa 0,0 l/m 0 min 2 min 0 W/m 6,4 km/h (2 Bft) 97,87 %
14.03.2022 00:40 10,7 C 9,4 C 5,6 C 80 % 1017,9 hPa 0,0 l/m 0 min 2 min 0 W/m 6,4 km/h (2 Bft) 97,87 %
14.03.2022 00:42 10,7 C 9,4 C 5,6 C 80 % 1017,9 hPa 0,0 l/m 0 min 0 min 0 W/m 6,4 km/h (2 Bft) 93,62 %
14.03.2022 00:44 10,7 C 9,4 C 5,6 C 80 % 1017,8 hPa 0,0 l/m 0 min 0 min 0 W/m 6,4 km/h (2 Bft) 97,92 %
14.03.2022 00:46 10,6 C 9,4 C 5,6 C 80 % 1017,8 hPa 0,0 l/m 0 min 0 min 0 W/m 6,4 km/h (2 Bft) 95,74 %
14.03.2022 00:48 10,6 C 9,4 C 5,6 C 80 % 1017,8 hPa 0,0 l/m 0 min 0 min 0 W/m 6,4 km/h (2 Bft) 95,74 %
14.03.2022 00:50 10,6 C 9,4 C 5,6 C 80 % 1017,8 hPa 0,0 l/m 0 min 0 min 0 W/m 3,2 km/h (1 Bft) 95,74 %
14.03.2022 00:52 10,6 C 9,4 C 5,6 C 81 % 1017,8 hPa 0,0 l/m 0 min 0 min 0 W/m 3,2 km/h (1 Bft) 97,87 %
14.03.2022 00:54 10,6 C 9,4 C 5,6 C 81 % 1017,8 hPa 0,0 l/m 0 min 0 min 0 W/m 6,4 km/h (2 Bft) 95,74 %
14.03.2022 00:56 10,6 C 9,4 C 5,6 C 81 % 1017,8 hPa 0,0 l/m 0 min 0 min 0 W/m 6,4 km/h (2 Bft) 95,65 %
14.03.2022 00:58 10,5 C 9,4 C 5,6 C 81 % 1017,9 hPa 0,0 l/m 0 min 0 min 0 W/m 6,4 km/h (2 Bft) 95,74 %
14.03.2022 01:00 10,5 C 9,4 C 5,6 C 81 % 1017,9 hPa 0,0 l/m 0 min 0 min 0 W/m 6,4 km/h (2 Bft) 97,87 %
14.03.2022 01:02 10,5 C 9,4 C 5,6 C 81 % 1018,0 hPa 0,0 l/m 0 min 0 min 0 W/m 9,7 km/h (2 Bft) 97,87 %
14.03.2022 01:04 10,4 C 9,4 C 5,6 C 81 % 1017,9 hPa 0,0 l/m 0 min 0 min 0 W/m 6,4 km/h (2 Bft) 97,87 %
14.03.2022 01:06 10,4 C 9,4 C 5,6 C 82 % 1018,0 hPa 0,0 l/m 0 min 0 min 0 W/m 3,2 km/h (1 Bft) 95,74 %
14.03.2022 01:08 10,4 C 9,4 C 5,6 C 82 % 1018,1 hPa 0,0 l/m 0 min 0 min 0 W/m 3,2 km/h (1 Bft) 95,65 %
14.03.2022 01:10 10,4 C 9,4 C 5,6 C 82 % 1018,1 hPa 0,0 l/m 0 min 0 min 0 W/m 6,4 km/h (2 Bft) 97,87 %
14.03.2022 01:12 10,4 C 9,4 C 5,6 C 82 % 1018,1 hPa 0,0 l/m 0 min 0 min 0 W/m 3,2 km/h (1 Bft) 97,87 %
14.03.2022 01:14 10,4 C 9,4 C 5,6 C 82 % 1018,1 hPa 0,0 l/m 0 min 0 min 0 W/m 3,2 km/h (1 Bft) 97,87 %
14.03.2022 01:16 10,3 C 9,4 C 5,6 C 82 % 1018,1 hPa 0,0 l/m 0 min 0 min 0 W/m 3,2 km/h (1 Bft) 97,87 %
14.03.2022 01:18 10,3 C 9,4 C 6,1 C 82 % 1018,1 hPa 0,0 l/m 0 min 0 min 0 W/m 3,2 km/h (1 Bft) 100,00 %
14.03.2022 01:20 10,3 C 9,4 C 5,6 C 82 % 1018,0 hPa 0,0 l/m 0 min 0 min 0 W/m 3,2 km/h (1 Bft) 100,00 %
14.03.2022 01:22 10,3 C 9,4 C 5,6 C 82 % 1017,9 hPa 0,0 l/m 0 min 0 min 0 W/m 3,2 km/h (1 Bft) 100,00 %
14.03.2022 01:24 10,3 C 9,4 C 5,6 C 82 % 1017,9 hPa 0,0 l/m 0 min 0 min 0 W/m 3,2 km/h (1 Bft) 100,00 %
14.03.2022 01:26 10,3 C 9,4 C 5,6 C 82 % 1018,0 hPa 0,0 l/m 0 min 0 min 0 W/m 3,2 km/h (1 Bft) 100,00 %
14.03.2022 01:28 10,3 C 9,4 C 5,6 C 82 % 1018,0 hPa 0,0 l/m 0 min 0 min 0 W/m 3,2 km/h (1 Bft) 100,00 %
14.03.2022 01:30 10,3 C 9,4 C 5,6 C 82 % 1018,1 hPa 0,0 l/m 0 min 0 min 0 W/m 3,2 km/h (1 Bft) 97,87 %
14.03.2022 01:32 10,3 C 9,4 C 5,6 C 82 % 1018,2 hPa 0,0 l/m 0 min 0 min 0 W/m 3,2 km/h (1 Bft) 100,00 %
14.03.2022 01:34 10,3 C 9,4 C 5,6 C 82 % 1018,2 hPa 0,0 l/m 0 min 0 min 0 W/m 3,2 km/h (1 Bft) 97,87 %
14.03.2022 01:36 10,2 C 9,4 C 5,6 C 82 % 1018,2 hPa 0,0 l/m 0 min 0 min 0 W/m 3,2 km/h (1 Bft) 97,87 %
14.03.2022 01:38 10,2 C 9,4 C 5,6 C 82 % 1018,3 hPa 0,0 l/m 0 min 0 min 0 W/m 3,2 km/h (1 Bft) 95,74 %
14.03.2022 01:40 10,2 C 9,4 C 5,6 C 82 % 1018,3 hPa 0,0 l/m 0 min 0 min 0 W/m 6,4 km/h (2 Bft) 97,87 %
14.03.2022 01:42 10,2 C 9,4 C 5,6 C 83 % 1018,3 hPa 0,0 l/m 0 min 0 min 0 W/m 6,4 km/h (2 Bft) 97,87 %
14.03.2022 01:44 10,2 C 9,4 C 5,6 C 82 % 1018,3 hPa 0,0 l/m 0 min 0 min 0 W/m 3,2 km/h (1 Bft) 97,83 %
14.03.2022 01:46 10,2 C 9,4 C 5,6 C 82 % 1018,4 hPa 0,0 l/m 0 min 0 min 0 W/m 3,2 km/h (1 Bft) 97,87 %
14.03.2022 01:48 10,2 C 9,4 C 5,6 C 82 % 1018,4 hPa 0,0 l/m 0 min 0 min 0 W/m 3,2 km/h (1 Bft) 97,87 %
14.03.2022 01:50 10,2 C 9,4 C 5,6 C 83 % 1018,4 hPa 0,0 l/m 0 min 0 min 0 W/m 3,2 km/h (1 Bft) 97,87 %
14.03.2022 01:52 10,2 C 9,4 C 5,6 C 83 % 1018,4 hPa 0,0 l/m 0 min 0 min 0 W/m 3,2 km/h (1 Bft) 97,87 %
14.03.2022 01:54 10,2 C 9,4 C 5,6 C 83 % 1018,4 hPa 0,0 l/m 0 min 0 min 0 W/m 3,2 km/h (1 Bft) 97,87 %
14.03.2022 01:56 10,1 C 9,4 C 5,6 C 83 % 1018,5 hPa 0,0 l/m 0 min 0 min 0 W/m 6,4 km/h (2 Bft) 95,65 %
14.03.2022 01:58 10,1 C 9,4 C 5,6 C 83 % 1018,5 hPa 0,0 l/m 0 min 0 min 0 W/m 6,4 km/h (2 Bft) 97,87 %
14.03.2022 02:00 10,1 C 9,4 C 5,6 C 83 % 1018,5 hPa 0,0 l/m 0 min 0 min 0 W/m 3,2 km/h (1 Bft) 97,87 %
14.03.2022 02:02 10,1 C 9,4 C 5,6 C 82 % 1018,5 hPa 0,0 l/m 0 min 0 min 0 W/m 6,4 km/h (2 Bft) 97,87 %
14.03.2022 02:04 10,1 C 9,4 C 5,6 C 82 % 1018,5 hPa 0,0 l/m 0 min 0 min 0 W/m 3,2 km/h (1 Bft) 97,87 %
14.03.2022 02:06 10,1 C 9,4 C 5,6 C 82 % 1018,6 hPa 0,0 l/m 0 min 0 min 0 W/m 3,2 km/h (1 Bft) 97,87 %
14.03.2022 02:08 10,1 C 9,4 C 5,6 C 82 % 1018,6 hPa 0,0 l/m 0 min 0 min 0 W/m 6,4 km/h (2 Bft) 97,83 %
14.03.2022 02:10 10,1 C 9,4 C 5,6 C 82 % 1018,7 hPa 0,0 l/m 0 min 0 min 0 W/m 6,4 km/h (2 Bft) 97,87 %
14.03.2022 02:12 10,1 C 9,4 C 5,6 C 82 % 1018,6 hPa 0,0 l/m 0 min 0 min 0 W/m 6,4 km/h (2 Bft) 97,87 %
14.03.2022 02:14 10,1 C 9,4 C 5,6 C 82 % 1018,6 hPa 0,0 l/m 0 min 0 min 0 W/m 3,2 km/h (1 Bft) 95,74 %
14.03.2022 02:16 10,1 C 9,4 C 5,6 C 82 % 1018,7 hPa 0,0 l/m 0 min 0 min 0 W/m 3,2 km/h (1 Bft) 97,87 %
14.03.2022 02:18 10,1 C 9,4 C 5,6 C 82 % 1018,8 hPa 0,0 l/m 0 min 0 min 0 W/m 3,2 km/h (1 Bft) 97,87 %
14.03.2022 02:20 10,1 C 9,4 C 5,6 C 82 % 1018,8 hPa 0,0 l/m 0 min 0 min 0 W/m 3,2 km/h (1 Bft) 97,83 %
14.03.2022 02:22 10,1 C 9,4 C 5,6 C 82 % 1018,8 hPa 0,0 l/m 0 min 0 min 0 W/m 3,2 km/h (1 Bft) 97,87 %
14.03.2022 02:24 10,1 C 9,4 C 5,6 C 82 % 1018,8 hPa 0,0 l/m 0 min 0 min 0 W/m 3,2 km/h (1 Bft) 97,87 %
14.03.2022 02:26 10,1 C 9,4 C 5,6 C 82 % 1018,8 hPa 0,0 l/m 0 min 0 min 0 W/m 6,4 km/h (2 Bft) 100,00 %
14.03.2022 02:28 10,0 C 9,4 C 5,6 C 82 % 1018,8 hPa 0,0 l/m 0 min 0 min 0 W/m 3,2 km/h (1 Bft) 100,00 %
14.03.2022 02:30 10,1 C 9,4 C 5,6 C 82 % 1018,9 hPa 0,0 l/m 0 min 0 min 0 W/m 6,4 km/h (2 Bft) 97,87 %
14.03.2022 02:32 10,0 C 9,4 C 5,6 C 83 % 1018,8 hPa 0,0 l/m 0 min 2 min 0 W/m 3,2 km/h (1 Bft) 97,83 %
14.03.2022 02:34 10,0 C 9,4 C 5,6 C 83 % 1018,8 hPa 0,0 l/m 0 min 0 min 0 W/m 6,4 km/h (2 Bft) 97,87 %
14.03.2022 02:36 10,0 C 9,4 C 5,6 C 83 % 1018,8 hPa 0,0 l/m 0 min 0 min 0 W/m 6,4 km/h (2 Bft) 95,74 %
14.03.2022 02:38 10,0 C 9,4 C 5,6 C 83 % 1018,8 hPa 0,0 l/m 0 min 0 min 0 W/m 6,4 km/h (2 Bft) 95,74 %
14.03.2022 02:40 10,0 C 9,4 C 5,6 C 83 % 1018,8 hPa 0,0 l/m 0 min 0 min 0 W/m 6,4 km/h (2 Bft) 95,74 %
14.03.2022 02:42 10,0 C 9,4 C 5,6 C 83 % 1018,9 hPa 0,0 l/m 0 min 0 min 0 W/m 6,4 km/h (2 Bft) 95,74 %
14.03.2022 02:44 10,0 C 9,4 C 5,6 C 83 % 1018,9 hPa 0,0 l/m 0 min 0 min 0 W/m 3,2 km/h (1 Bft) 95,65 %
14.03.2022 02:46 10,0 C 9,4 C 5,6 C 83 % 1018,9 hPa 0,0 l/m 0 min 0 min 0 W/m 3,2 km/h (1 Bft) 95,74 %
14.03.2022 02:48 10,0 C 9,4 C 5,6 C 83 % 1018,9 hPa 0,0 l/m 0 min 0 min 0 W/m 6,4 km/h (2 Bft) 95,74 %
14.03.2022 02:50 9,9 C 9,4 C 5,6 C 83 % 1018,9 hPa 0,0 l/m 0 min 0 min 0 W/m 3,2 km/h (1 Bft) 95,74 %
14.03.2022 02:52 9,9 C 8,9 C 5,6 C 83 % 1018,9 hPa 0,0 l/m 0 min 2 min 0 W/m 3,2 km/h (1 Bft) 95,74 %
14.03.2022 02:54 9,9 C 8,9 C 5,0 C 83 % 1019,0 hPa 0,0 l/m 0 min 2 min 0 W/m 6,4 km/h (2 Bft) 95,65 %
14.03.2022 02:56 9,9 C 8,9 C 5,0 C 83 % 1019,0 hPa 0,0 l/m 0 min 2 min 0 W/m 6,4 km/h (2 Bft) 93,62 %
14.03.2022 02:58 9,9 C 8,9 C 5,0 C 84 % 1019,0 hPa 0,0 l/m 0 min 2 min 0 W/m 6,4 km/h (2 Bft) 95,74 %
14.03.2022 03:00 9,9 C 8,9 C 5,0 C 84 % 1019,0 hPa 0,0 l/m 0 min 2 min 0 W/m 6,4 km/h (2 Bft) 93,62 %
14.03.2022 03:02 9,9 C 8,9 C 5,0 C 84 % 1019,0 hPa 0,0 l/m 0 min 0 min 0 W/m 3,2 km/h (1 Bft) 95,74 %
14.03.2022 03:04 9,9 C 8,9 C 4,4 C 84 % 1019,1 hPa 0,0 l/m 0 min 0 min 0 W/m 6,4 km/h (2 Bft) 95,74 %
14.03.2022 03:06 9,9 C 8,9 C 4,4 C 84 % 1019,1 hPa 0,0 l/m 0 min 0 min 0 W/m 3,2 km/h (1 Bft) 93,48 %
14.03.2022 03:08 9,9 C 8,9 C 4,4 C 84 % 1019,1 hPa 0,0 l/m 0 min 0 min 0 W/m 6,4 km/h (2 Bft) 97,87 %
14.03.2022 03:10 9,8 C 8,9 C 4,4 C 84 % 1019,1 hPa 0,2 l/m 0 min 0 min 0 W/m 6,4 km/h (2 Bft) 97,87 %
14.03.2022 03:12 9,8 C 8,3 C 4,4 C 85 % 1019,1 hPa 0,0 l/m 0 min 0 min 0 W/m 6,4 km/h (2 Bft) 97,87 %
14.03.2022 03:14 9,8 C 8,3 C 4,4 C 85 % 1019,2 hPa 0,0 l/m 0 min 0 min 0 W/m 3,2 km/h (1 Bft) 97,87 %
14.03.2022 03:16 9,8 C 8,3 C 4,4 C 85 % 1019,2 hPa 0,0 l/m 0 min 0 min 0 W/m 3,2 km/h (1 Bft) 100,00 %
14.03.2022 03:18 9,8 C 8,3 C 4,4 C 85 % 1019,2 hPa 0,2 l/m 0 min 0 min 0 W/m 3,2 km/h (1 Bft) 100,00 %
14.03.2022 03:20 9,7 C 8,3 C 4,4 C 85 % 1019,2 hPa 0,0 l/m 0 min 0 min 0 W/m 6,4 km/h (2 Bft) 100,00 %
14.03.2022 03:22 9,7 C 8,3 C 4,4 C 85 % 1019,3 hPa 0,0 l/m 0 min 0 min 0 W/m 12,9 km/h (3 Bft) 100,00 %
14.03.2022 03:24 9,7 C 8,3 C 4,4 C 86 % 1019,3 hPa 0,0 l/m 0 min 0 min 0 W/m 6,4 km/h (2 Bft) 100,00 %
14.03.2022 03:26 9,7 C 8,3 C 4,4 C 86 % 1019,3 hPa 0,0 l/m 0 min 0 min 0 W/m 6,4 km/h (2 Bft) 100,00 %
14.03.2022 03:28 9,7 C 8,3 C 3,9 C 86 % 1019,3 hPa 0,0 l/m 0 min 0 min 0 W/m 12,9 km/h (3 Bft) 100,00 %
14.03.2022 03:30 9,6 C 8,3 C 3,9 C 86 % 1019,4 hPa 0,2 l/m 0 min 0 min 0 W/m 12,9 km/h (3 Bft) 100,00 %
14.03.2022 03:32 9,6 C 8,3 C 3,9 C 87 % 1019,4 hPa 0,0 l/m 0 min 0 min 0 W/m 3,2 km/h (1 Bft) 97,87 %
14.03.2022 03:34 9,6 C 8,3 C 3,9 C 87 % 1019,4 hPa 0,2 l/m 0 min 0 min 0 W/m 3,2 km/h (1 Bft) 100,00 %
14.03.2022 03:36 9,5 C 8,3 C 3,9 C 87 % 1019,3 hPa 0,0 l/m 0 min 0 min 0 W/m 6,4 km/h (2 Bft) 100,00 %
14.03.2022 03:38 9,5 C 7,8 C 3,9 C 87 % 1019,3 hPa 0,0 l/m 0 min 0 min 0 W/m 6,4 km/h (2 Bft) 100,00 %
14.03.2022 03:40 9,4 C 7,8 C 3,9 C 88 % 1019,4 hPa 0,2 l/m 0 min 0 min 0 W/m 6,4 km/h (2 Bft) 100,00 %
14.03.2022 03:42 9,4 C 7,8 C 3,9 C 88 % 1019,4 hPa 0,0 l/m 0 min 0 min 0 W/m 6,4 km/h (2 Bft) 100,00 %
14.03.2022 03:44 9,4 C 7,8 C 3,9 C 88 % 1019,4 hPa 0,0 l/m 0 min 0 min 0 W/m 6,4 km/h (2 Bft) 100,00 %
14.03.2022 03:46 9,4 C 7,8 C 3,9 C 88 % 1019,4 hPa 0,2 l/m 0 min 0 min 0 W/m 6,4 km/h (2 Bft) 100,00 %
14.03.2022 03:48 9,4 C 7,8 C 4,4 C 89 % 1019,4 hPa 0,0 l/m 0 min 0 min 0 W/m 12,9 km/h (3 Bft) 100,00 %
14.03.2022 03:50 9,3 C 7,8 C 3,9 C 89 % 1019,5 hPa 0,0 l/m 0 min 0 min 0 W/m 6,4 km/h (2 Bft) 100,00 %
14.03.2022 03:52 9,3 C 7,8 C 3,9 C 89 % 1019,5 hPa 0,2 l/m 0 min 0 min 0 W/m 3,2 km/h (1 Bft) 100,00 %
14.03.2022 03:54 9,3 C 7,8 C 3,9 C 89 % 1019,5 hPa 0,0 l/m 0 min 0 min 0 W/m 6,4 km/h (2 Bft) 100,00 %
14.03.2022 03:56 9,3 C 7,8 C 3,9 C 89 % 1019,5 hPa 0,0 l/m 0 min 0 min 0 W/m 6,4 km/h (2 Bft) 100,00 %
14.03.2022 03:58 9,2 C 7,8 C 3,9 C 89 % 1019,6 hPa 0,0 l/m 0 min 0 min 0 W/m 12,9 km/h (3 Bft) 100,00 %
14.03.2022 04:00 9,2 C 7,8 C 3,9 C 90 % 1019,6 hPa 0,0 l/m 0 min 0 min 0 W/m 12,9 km/h (3 Bft) 100,00 %
14.03.2022 04:02 9,2 C 7,8 C 3,9 C 90 % 1019,7 hPa 0,2 l/m 0 min 0 min 0 W/m 6,4 km/h (2 Bft) 100,00 %
14.03.2022 04:04 9,2 C 7,8 C 3,9 C 90 % 1019,7 hPa 0,0 l/m 0 min 0 min 0 W/m 6,4 km/h (2 Bft) 93,62 %
14.03.2022 04:06 9,1 C 7,8 C 3,9 C 90 % 1019,8 hPa 0,0 l/m 0 min 0 min 0 W/m 6,4 km/h (2 Bft) 100,00 %
14.03.2022 04:08 9,1 C 7,8 C 3,9 C 90 % 1019,8 hPa 0,0 l/m 0 min 0 min 0 W/m 12,9 km/h (3 Bft) 100,00 %
14.03.2022 04:10 9,1 C 7,8 C 3,9 C 90 % 1019,8 hPa 0,0 l/m 0 min 0 min 0 W/m 9,7 km/h (2 Bft) 100,00 %
14.03.2022 04:12 9,1 C 7,8 C 3,9 C 91 % 1019,9 hPa 0,2 l/m 0 min 0 min 0 W/m 6,4 km/h (2 Bft) 100,00 %
14.03.2022 04:14 9,1 C 7,8 C 3,9 C 91 % 1019,9 hPa 0,0 l/m 0 min 0 min 0 W/m 12,9 km/h (3 Bft) 100,00 %
14.03.2022 04:16 9,0 C 7,8 C 3,9 C 91 % 1020,0 hPa 0,2 l/m 0 min 0 min 0 W/m 9,7 km/h (2 Bft) 100,00 %
14.03.2022 04:18 9,0 C 7,8 C 3,9 C 91 % 1020,0 hPa 0,0 l/m 0 min 0 min 0 W/m 6,4 km/h (2 Bft) 98,28 %
14.03.2022 04:20 9,0 C 7,8 C 3,9 C 91 % 1020,0 hPa 0,0 l/m 0 min 0 min 0 W/m 12,9 km/h (3 Bft) 100,00 %
14.03.2022 04:22 8,9 C 7,8 C 4,4 C 92 % 1020,0 hPa 0,2 l/m 0 min 0 min 0 W/m 12,9 km/h (3 Bft) 100,00 %
14.03.2022 04:24 8,9 C 7,8 C 4,4 C 92 % 1020,0 hPa 0,0 l/m 0 min 0 min 0 W/m 3,2 km/h (1 Bft) 100,00 %
14.03.2022 04:26 8,9 C 7,8 C 3,9 C 92 % 1020,1 hPa 0,2 l/m 0 min 0 min 0 W/m 12,9 km/h (3 Bft) 95,74 %
14.03.2022 04:28 8,9 C 7,8 C 3,9 C 92 % 1020,1 hPa 0,0 l/m 0 min 0 min 0 W/m 6,4 km/h (2 Bft) 97,87 %
14.03.2022 04:30 8,9 C 7,8 C 3,9 C 92 % 1020,1 hPa 0,0 l/m 0 min 0 min 0 W/m 12,9 km/h (3 Bft) 97,83 %
14.03.2022 04:32 8,9 C 7,8 C 3,9 C 92 % 1020,2 hPa 0,0 l/m 0 min 0 min 0 W/m 12,9 km/h (3 Bft) 97,87 %
14.03.2022 04:34 8,8 C 7,8 C 3,9 C 92 % 1020,2 hPa 0,2 l/m 0 min 0 min 0 W/m 12,9 km/h (3 Bft) 97,87 %
14.03.2022 04:36 8,8 C 7,8 C 3,9 C 92 % 1020,3 hPa 0,0 l/m 0 min 0 min 0 W/m 12,9 km/h (3 Bft) 97,87 %
14.03.2022 04:38 8,8 C 7,8 C 3,9 C 92 % 1020,4 hPa 0,0 l/m 0 min 0 min 0 W/m 12,9 km/h (3 Bft) 97,87 %
14.03.2022 04:40 8,8 C 7,8 C 3,9 C 93 % 1020,4 hPa 0,2 l/m 0 min 0 min 0 W/m 12,9 km/h (3 Bft) 91,49 %
14.03.2022 04:42 8,8 C 7,8 C 3,9 C 93 % 1020,4 hPa 0,0 l/m 0 min 0 min 0 W/m 9,7 km/h (2 Bft) 95,65 %
14.03.2022 04:44 8,8 C 7,8 C 3,9 C 93 % 1020,4 hPa 0,0 l/m 0 min 0 min 0 W/m 16,1 km/h (3 Bft) 95,74 %
14.03.2022 04:46 8,8 C 7,8 C 3,9 C 93 % 1020,5 hPa 0,0 l/m 0 min 0 min 0 W/m 12,9 km/h (3 Bft) 94,29 %
14.03.2022 04:48 8,8 C 7,8 C 3,9 C 93 % 1020,5 hPa 0,0 l/m 0 min 0 min 0 W/m 12,9 km/h (3 Bft) 93,22 %
14.03.2022 04:50 8,8 C 7,8 C 3,9 C 93 % 1020,5 hPa 0,0 l/m 0 min 0 min 0 W/m 12,9 km/h (3 Bft) 91,49 %
14.03.2022 04:52 8,8 C 7,8 C 3,9 C 93 % 1020,5 hPa 0,2 l/m 0 min 0 min 0 W/m 12,9 km/h (3 Bft) 93,62 %
14.03.2022 04:54 8,7 C 7,8 C 3,9 C 93 % 1020,5 hPa 0,0 l/m 0 min 0 min 0 W/m 16,1 km/h (3 Bft) 93,48 %
14.03.2022 04:56 8,7 C 7,8 C 3,9 C 93 % 1020,6 hPa 0,0 l/m 0 min 0 min 0 W/m 12,9 km/h (3 Bft) 95,74 %
14.03.2022 04:58 8,7 C 7,8 C 3,9 C 93 % 1020,6 hPa 0,0 l/m 0 min 2 min 0 W/m 12,9 km/h (3 Bft) 95,74 %
14.03.2022 05:00 8,7 C 7,8 C 3,9 C 94 % 1020,6 hPa 0,2 l/m 0 min 2 min 0 W/m 6,4 km/h (2 Bft) 95,74 %
14.03.2022 05:02 8,7 C 7,8 C 3,9 C 94 % 1020,6 hPa 0,0 l/m 0 min 2 min 0 W/m 6,4 km/h (2 Bft) 91,43 %
14.03.2022 05:04 8,7 C 7,8 C 3,9 C 94 % 1020,6 hPa 0,0 l/m 0 min 0 min 0 W/m 6,4 km/h (2 Bft) 96,23 %
14.03.2022 05:06 8,7 C 7,8 C 3,9 C 94 % 1020,7 hPa 0,0 l/m 0 min 0 min 0 W/m 6,4 km/h (2 Bft) 95,74 %
14.03.2022 05:08 8,7 C 7,8 C 3,9 C 94 % 1020,8 hPa 0,0 l/m 0 min 0 min 0 W/m 6,4 km/h (2 Bft) 95,65 %
14.03.2022 05:10 8,7 C 7,8 C 4,4 C 94 % 1020,9 hPa 0,0 l/m 0 min 0 min 0 W/m 12,9 km/h (3 Bft) 93,62 %
14.03.2022 05:12 8,7 C 7,8 C 3,9 C 94 % 1020,9 hPa 0,0 l/m 0 min 0 min 0 W/m 12,9 km/h (3 Bft) 93,62 %
14.03.2022 05:14 8,7 C 7,8 C 3,9 C 94 % 1020,9 hPa 0,0 l/m 0 min 0 min 0 W/m 9,7 km/h (2 Bft) 50,00 %
14.03.2022 05:16 8,7 C 7,8 C 3,9 C 94 % 1021,0 hPa 0,0 l/m 0 min 0 min 0 W/m 9,7 km/h (2 Bft) 95,12 %
14.03.2022 05:18 8,6 C 7,8 C 3,9 C 94 % 1020,9 hPa 0,2 l/m 0 min 0 min 0 W/m 9,7 km/h (2 Bft) 95,74 %
14.03.2022 05:20 8,6 C 7,8 C 3,9 C 94 % 1021,0 hPa 0,0 l/m 0 min 0 min 0 W/m 16,1 km/h (3 Bft) 93,62 %
14.03.2022 05:22 8,6 C 7,8 C 3,9 C 94 % 1021,0 hPa 0,0 l/m 0 min 0 min 0 W/m 12,9 km/h (3 Bft) 96,15 %
14.03.2022 05:24 8,6 C 7,8 C 3,9 C 94 % 1021,0 hPa 0,0 l/m 0 min 0 min 0 W/m 12,9 km/h (3 Bft) 95,74 %
14.03.2022 05:26 8,6 C 7,8 C 3,9 C 95 % 1021,1 hPa 0,0 l/m 0 min 0 min 0 W/m 9,7 km/h (2 Bft) 93,62 %
14.03.2022 05:28 8,6 C 7,8 C 3,9 C 95 % 1021,0 hPa 0,0 l/m 0 min 0 min 0 W/m 6,4 km/h (2 Bft) 95,74 %
14.03.2022 05:30 8,6 C 7,8 C 3,9 C 95 % 1021,1 hPa 0,0 l/m 0 min 0 min 0 W/m 9,7 km/h (2 Bft) 97,83 %
14.03.2022 05:32 8,6 C 7,8 C 3,9 C 95 % 1021,1 hPa 0,0 l/m 0 min 0 min 0 W/m 12,9 km/h (3 Bft) 97,56 %
14.03.2022 05:34 8,6 C 7,8 C 3,9 C 95 % 1021,1 hPa 0,0 l/m 0 min 0 min 0 W/m 9,7 km/h (2 Bft) 100,00 %
14.03.2022 05:36 8,6 C 7,8 C 3,9 C 95 % 1021,1 hPa 0,0 l/m 0 min 0 min 0 W/m 16,1 km/h (3 Bft) 100,00 %
14.03.2022 05:38 8,6 C 7,8 C 3,9 C 95 % 1021,1 hPa 0,0 l/m 0 min 0 min 0 W/m 9,7 km/h (2 Bft) 100,00 %
14.03.2022 05:40 8,6 C 7,8 C 3,9 C 95 % 1021,2 hPa 0,0 l/m 0 min 0 min 0 W/m 19,3 km/h (3 Bft) 100,00 %
14.03.2022 05:42 8,6 C 7,8 C 3,9 C 95 % 1021,2 hPa 0,0 l/m 0 min 0 min 0 W/m 12,9 km/h (3 Bft) 97,87 %
14.03.2022 05:44 8,5 C 7,8 C 3,9 C 95 % 1021,2 hPa 0,0 l/m 0 min 0 min 0 W/m 9,7 km/h (2 Bft) 100,00 %
14.03.2022 05:46 8,5 C 7,8 C 3,9 C 95 % 1021,3 hPa 0,0 l/m 0 min 0 min 0 W/m 12,9 km/h (3 Bft) 100,00 %
14.03.2022 05:48 8,4 C 7,8 C 3,9 C 95 % 1021,2 hPa 0,0 l/m 0 min 0 min 0 W/m 12,9 km/h (3 Bft) 100,00 %
14.03.2022 05:50 8,4 C 7,8 C 3,9 C 95 % 1021,2 hPa 0,0 l/m 0 min 0 min 0 W/m 16,1 km/h (3 Bft) 97,87 %
14.03.2022 05:52 8,4 C 7,8 C 3,9 C 95 % 1021,3 hPa 0,0 l/m 0 min 0 min 0 W/m 19,3 km/h (3 Bft) 97,87 %
14.03.2022 05:54 8,3 C 7,8 C 3,9 C 95 % 1021,3 hPa 0,0 l/m 0 min 0 min 0 W/m 12,9 km/h (3 Bft) 100,00 %
14.03.2022 05:56 8,3 C 7,8 C 3,9 C 95 % 1021,4 hPa 0,0 l/m 0 min 0 min 0 W/m 16,1 km/h (3 Bft) 100,00 %
14.03.2022 05:58 8,3 C 7,8 C 3,9 C 95 % 1021,4 hPa 0,0 l/m 0 min 0 min 0 W/m 16,1 km/h (3 Bft) 100,00 %
14.03.2022 06:00 8,3 C 7,8 C 3,9 C 94 % 1021,4 hPa 0,0 l/m 0 min 0 min 0 W/m 12,9 km/h (3 Bft) 100,00 %
14.03.2022 06:02 8,3 C 7,8 C 3,9 C 94 % 1021,5 hPa 0,0 l/m 0 min 0 min 0 W/m 12,9 km/h (3 Bft) 100,00 %
14.03.2022 06:04 8,3 C 7,8 C 3,9 C 94 % 1021,5 hPa 0,0 l/m 0 min 0 min 0 W/m 9,7 km/h (2 Bft) 100,00 %
14.03.2022 06:08 8,3 C 7,8 C 3,9 C 94 % 1021,6 hPa 0,0 l/m 0 min 0 min 0 W/m 12,9 km/h (3 Bft) 100,00 %
14.03.2022 06:10 8,3 C 7,8 C 3,9 C 94 % 1021,6 hPa 0,0 l/m 0 min 0 min 0 W/m 6,4 km/h (2 Bft) 100,00 %
14.03.2022 06:12 8,3 C 7,8 C 3,3 C 94 % 1021,6 hPa 0,0 l/m 0 min 0 min 0 W/m 16,1 km/h (3 Bft) 100,00 %
14.03.2022 06:14 8,3 C 7,8 C 3,3 C 94 % 1021,6 hPa 0,0 l/m 0 min 0 min 0 W/m 12,9 km/h (3 Bft) 100,00 %
14.03.2022 06:16 8,3 C 7,8 C 3,3 C 94 % 1021,6 hPa 0,0 l/m 0 min 0 min 0 W/m 12,9 km/h (3 Bft) 100,00 %
14.03.2022 06:18 8,3 C 7,8 C 3,9 C 94 % 1021,7 hPa 0,0 l/m 0 min 0 min 0 W/m 3,2 km/h (1 Bft) 97,83 %
14.03.2022 06:20 8,3 C 7,8 C 3,9 C 94 % 1021,7 hPa 0,0 l/m 0 min 0 min 0 W/m 6,4 km/h (2 Bft) 93,62 %
14.03.2022 06:22 8,2 C 7,2 C 3,9 C 93 % 1021,7 hPa 0,0 l/m 0 min 0 min 0 W/m 6,4 km/h (2 Bft) 97,87 %
14.03.2022 06:24 8,3 C 7,2 C 3,9 C 93 % 1021,8 hPa 0,0 l/m 0 min 0 min 0 W/m 6,4 km/h (2 Bft) 97,87 %
14.03.2022 06:26 8,3 C 7,2 C 3,3 C 93 % 1021,8 hPa 0,0 l/m 0 min 0 min 0 W/m 12,9 km/h (3 Bft) 97,87 %
14.03.2022 06:28 8,2 C 7,2 C 3,3 C 93 % 1021,8 hPa 0,0 l/m 0 min 0 min 0 W/m 19,3 km/h (3 Bft) 97,87 %
14.03.2022 06:30 8,2 C 7,2 C 3,3 C 93 % 1021,8 hPa 0,0 l/m 0 min 0 min 0 W/m 19,3 km/h (3 Bft) 97,83 %
14.03.2022 06:32 8,2 C 7,2 C 3,3 C 93 % 1021,9 hPa 0,0 l/m 0 min 0 min 0 W/m 12,9 km/h (3 Bft) 97,87 %
14.03.2022 06:34 8,2 C 7,2 C 3,3 C 93 % 1021,9 hPa 0,0 l/m 0 min 0 min 0 W/m 6,4 km/h (2 Bft) 97,87 %
14.03.2022 06:36 8,2 C 7,2 C 3,3 C 93 % 1021,9 hPa 0,0 l/m 0 min 0 min 0 W/m 6,4 km/h (2 Bft) 97,87 %
14.03.2022 06:38 8,2 C 7,2 C 3,3 C 93 % 1022,0 hPa 0,0 l/m 0 min 0 min 0 W/m 19,3 km/h (3 Bft) 97,87 %
14.03.2022 06:40 8,2 C 7,2 C 3,3 C 93 % 1022,1 hPa 0,0 l/m 0 min 0 min 0 W/m 9,7 km/h (2 Bft) 97,87 %
14.03.2022 06:42 8,2 C 7,2 C 3,3 C 93 % 1022,1 hPa 0,0 l/m 0 min 0 min 0 W/m 12,9 km/h (3 Bft) 97,83 %
14.03.2022 06:44 8,2 C 7,2 C 3,3 C 93 % 1022,2 hPa 0,0 l/m 0 min 0 min 0 W/m 16,1 km/h (3 Bft) 95,74 %
14.03.2022 06:46 8,2 C 7,2 C 3,3 C 93 % 1022,2 hPa 0,0 l/m 0 min 0 min 0 W/m 12,9 km/h (3 Bft) 97,87 %
14.03.2022 06:48 8,2 C 7,2 C 3,3 C 93 % 1022,2 hPa 0,0 l/m 0 min 0 min 0 W/m 12,9 km/h (3 Bft) 97,87 %
14.03.2022 06:50 8,2 C 7,2 C 3,3 C 93 % 1022,2 hPa 0,0 l/m 0 min 0 min 0 W/m 16,1 km/h (3 Bft) 100,00 %
14.03.2022 06:52 8,2 C 7,2 C 3,3 C 93 % 1022,3 hPa 0,0 l/m 0 min 0 min 0 W/m 9,7 km/h (2 Bft) 100,00 %
14.03.2022 06:54 8,2 C 7,2 C 3,3 C 93 % 1022,3 hPa 0,0 l/m 0 min 0 min 0 W/m 6,4 km/h (2 Bft) 100,00 %
14.03.2022 06:56 8,2 C 7,2 C 3,3 C 93 % 1022,3 hPa 0,0 l/m 0 min 0 min 0 W/m 6,4 km/h (2 Bft) 97,87 %
14.03.2022 06:58 8,2 C 7,2 C 3,9 C 93 % 1022,4 hPa 0,0 l/m 0 min 0 min 0 W/m 6,4 km/h (2 Bft) 97,87 %
14.03.2022 07:00 8,2 C 7,2 C 3,9 C 93 % 1022,4 hPa 0,0 l/m 0 min 0 min 0 W/m 9,7 km/h (2 Bft) 100,00 %
14.03.2022 07:02 8,2 C 7,2 C 3,9 C 93 % 1022,5 hPa 0,0 l/m 0 min 0 min 0 W/m 9,7 km/h (2 Bft) 100,00 %
14.03.2022 07:04 8,2 C 7,2 C 3,9 C 93 % 1022,5 hPa 0,0 l/m 0 min 0 min 0 W/m 9,7 km/h (2 Bft) 97,87 %
14.03.2022 07:06 8,2 C 7,2 C 3,9 C 93 % 1022,5 hPa 0,0 l/m 0 min 0 min 1 W/m 9,7 km/h (2 Bft) 97,83 %
14.03.2022 07:08 8,2 C 7,2 C 3,9 C 93 % 1022,5 hPa 0,0 l/m 0 min 0 min 5 W/m 6,4 km/h (2 Bft) 97,87 %
14.03.2022 07:10 8,2 C 7,2 C 3,9 C 93 % 1022,6 hPa 0,0 l/m 0 min 0 min 7 W/m 12,9 km/h (3 Bft) 97,87 %
14.03.2022 07:12 8,2 C 7,2 C 3,3 C 93 % 1022,6 hPa 0,0 l/m 0 min 0 min 8 W/m 9,7 km/h (2 Bft) 97,87 %
14.03.2022 07:14 8,2 C 7,2 C 3,9 C 93 % 1022,6 hPa 0,0 l/m 0 min 0 min 9 W/m 12,9 km/h (3 Bft) 97,87 %
14.03.2022 07:16 8,2 C 7,2 C 3,9 C 93 % 1022,5 hPa 0,0 l/m 0 min 0 min 10 W/m 6,4 km/h (2 Bft) 97,83 %
14.03.2022 07:18 8,2 C 7,2 C 3,3 C 93 % 1022,6 hPa 0,0 l/m 0 min 0 min 11 W/m 9,7 km/h (2 Bft) 97,87 %
14.03.2022 07:20 8,2 C 7,2 C 3,9 C 93 % 1022,6 hPa 0,0 l/m 0 min 0 min 11 W/m 9,7 km/h (2 Bft) 97,87 %
14.03.2022 07:22 8,2 C 7,2 C 3,3 C 93 % 1022,6 hPa 0,0 l/m 0 min 2 min 12 W/m 6,4 km/h (2 Bft) 97,87 %
14.03.2022 07:24 8,2 C 7,2 C 3,9 C 94 % 1022,6 hPa 0,0 l/m 0 min 2 min 12 W/m 6,4 km/h (2 Bft) 97,87 %
14.03.2022 07:26 8,2 C 7,8 C 3,9 C 94 % 1022,6 hPa 0,0 l/m 0 min 0 min 13 W/m 6,4 km/h (2 Bft) 96,00 %
14.03.2022 07:28 8,2 C 7,8 C 3,9 C 94 % 1022,7 hPa 0,0 l/m 0 min 0 min 14 W/m 6,4 km/h (2 Bft) 97,83 %
14.03.2022 07:30 8,2 C 7,8 C 3,9 C 94 % 1022,6 hPa 0,0 l/m 0 min 0 min 16 W/m 6,4 km/h (2 Bft) 97,92 %
14.03.2022 07:32 8,2 C 7,8 C 3,9 C 94 % 1022,7 hPa 0,0 l/m 0 min 0 min 16 W/m 9,7 km/h (2 Bft) 95,74 %
14.03.2022 07:34 8,2 C 7,8 C 3,9 C 94 % 1022,7 hPa 0,0 l/m 0 min 0 min 18 W/m 6,4 km/h (2 Bft) 97,87 %
14.03.2022 07:36 8,2 C 7,8 C 3,9 C 94 % 1022,8 hPa 0,0 l/m 0 min 0 min 17 W/m 12,9 km/h (3 Bft) 97,87 %
14.03.2022 07:38 8,2 C 7,8 C 3,9 C 94 % 1022,8 hPa 0,0 l/m 0 min 0 min 18 W/m 9,7 km/h (2 Bft) 97,83 %
14.03.2022 07:40 8,2 C 7,8 C 3,9 C 94 % 1022,9 hPa 0,0 l/m 0 min 0 min 18 W/m 6,4 km/h (2 Bft) 97,87 %
14.03.2022 07:42 8,2 C 7,8 C 3,9 C 94 % 1022,8 hPa 0,0 l/m 0 min 0 min 19 W/m 9,7 km/h (2 Bft) 97,87 %
14.03.2022 07:44 8,2 C 7,8 C 3,9 C 94 % 1022,8 hPa 0,0 l/m 0 min 0 min 21 W/m 9,7 km/h (2 Bft) 97,87 %
14.03.2022 07:46 8,2 C 7,8 C 3,9 C 94 % 1022,8 hPa 0,0 l/m 0 min 0 min 23 W/m 12,9 km/h (3 Bft) 97,87 %
14.03.2022 07:48 8,2 C 7,8 C 3,9 C 93 % 1022,8 hPa 0,0 l/m 0 min 0 min 25 W/m 9,7 km/h (2 Bft) 100,00 %
14.03.2022 07:50 8,2 C 7,8 C 3,9 C 93 % 1022,8 hPa 0,0 l/m 0 min 0 min 27 W/m 6,4 km/h (2 Bft) 97,83 %
14.03.2022 07:52 8,3 C 7,8 C 3,9 C 93 % 1022,9 hPa 0,0 l/m 0 min 0 min 28 W/m 9,7 km/h (2 Bft) 95,74 %
14.03.2022 07:54 8,3 C 7,8 C 3,9 C 93 % 1022,9 hPa 0,0 l/m 0 min 0 min 29 W/m 6,4 km/h (2 Bft) 97,87 %
14.03.2022 07:56 8,3 C 7,8 C 3,9 C 93 % 1023,0 hPa 0,0 l/m 0 min 0 min 31 W/m 3,2 km/h (1 Bft) 97,87 %
14.03.2022 07:58 8,3 C 7,8 C 3,9 C 93 % 1023,0 hPa 0,0 l/m 0 min 0 min 35 W/m 6,4 km/h (2 Bft) 97,87 %
14.03.2022 08:00 8,3 C 7,8 C 3,9 C 93 % 1023,0 hPa 0,0 l/m 0 min 0 min 40 W/m 12,9 km/h (3 Bft) 95,74 %
14.03.2022 08:02 8,3 C 7,8 C 3,9 C 93 % 1023,0 hPa 0,0 l/m 0 min 0 min 43 W/m 6,4 km/h (2 Bft) 97,83 %
14.03.2022 08:04 8,3 C 7,8 C 3,9 C 93 % 1023,0 hPa 0,0 l/m 0 min 0 min 47 W/m 12,9 km/h (3 Bft) 97,87 %
14.03.2022 08:06 8,3 C 7,8 C 3,9 C 93 % 1023,1 hPa 0,0 l/m 0 min 0 min 51 W/m 6,4 km/h (2 Bft) 97,87 %
14.03.2022 08:08 8,3 C 7,8 C 3,9 C 93 % 1023,1 hPa 0,0 l/m 0 min 0 min 54 W/m 6,4 km/h (2 Bft) 97,87 %
14.03.2022 08:10 8,4 C 7,8 C 3,9 C 93 % 1023,1 hPa 0,0 l/m 0 min 0 min 57 W/m 6,4 km/h (2 Bft) 95,74 %
14.03.2022 08:12 8,4 C 7,8 C 3,9 C 93 % 1023,1 hPa 0,0 l/m 0 min 0 min 59 W/m 6,4 km/h (2 Bft) 97,87 %
14.03.2022 08:14 8,4 C 7,8 C 3,9 C 93 % 1023,2 hPa 0,0 l/m 0 min 0 min 61 W/m 9,7 km/h (2 Bft) 95,65 %
14.03.2022 08:16 8,4 C 7,8 C 3,9 C 93 % 1023,2 hPa 0,0 l/m 0 min 0 min 63 W/m 6,4 km/h (2 Bft) 93,62 %
14.03.2022 08:18 8,4 C 8,3 C 3,9 C 93 % 1023,3 hPa 0,0 l/m 0 min 0 min 66 W/m 6,4 km/h (2 Bft) 95,74 %
14.03.2022 08:20 8,4 C 8,3 C 3,9 C 93 % 1023,3 hPa 0,0 l/m 0 min 0 min 68 W/m 6,4 km/h (2 Bft) 95,74 %
14.03.2022 08:22 8,5 C 8,3 C 3,9 C 93 % 1023,3 hPa 0,0 l/m 0 min 0 min 70 W/m 6,4 km/h (2 Bft) 95,74 %
14.03.2022 08:24 8,5 C 8,3 C 3,9 C 93 % 1023,4 hPa 0,0 l/m 0 min 0 min 72 W/m 9,7 km/h (2 Bft) 95,74 %
14.03.2022 08:26 8,5 C 8,3 C 3,9 C 93 % 1023,4 hPa 0,0 l/m 0 min 0 min 73 W/m 3,2 km/h (1 Bft) 93,48 %
14.03.2022 08:28 8,5 C 8,3 C 3,9 C 93 % 1023,4 hPa 0,0 l/m 0 min 0 min 75 W/m 6,4 km/h (2 Bft) 95,74 %
14.03.2022 08:30 8,5 C 8,3 C 3,9 C 93 % 1023,5 hPa 0,0 l/m 0 min 0 min 76 W/m 19,3 km/h (3 Bft) 91,49 %
14.03.2022 08:32 8,6 C 8,3 C 3,9 C 93 % 1023,5 hPa 0,0 l/m 0 min 0 min 77 W/m 12,9 km/h (3 Bft) 95,74 %
14.03.2022 08:34 8,6 C 8,3 C 3,9 C 93 % 1023,5 hPa 0,0 l/m 0 min 0 min 76 W/m 16,1 km/h (3 Bft) 93,62 %
14.03.2022 08:36 8,6 C 8,3 C 3,9 C 93 % 1023,6 hPa 0,0 l/m 0 min 0 min 73 W/m 9,7 km/h (2 Bft) 95,74 %
14.03.2022 08:38 8,6 C 8,3 C 3,9 C 93 % 1023,6 hPa 0,0 l/m 0 min 0 min 69 W/m 6,4 km/h (2 Bft) 97,83 %
14.03.2022 08:40 8,6 C 8,3 C 3,9 C 92 % 1023,7 hPa 0,0 l/m 0 min 0 min 66 W/m 19,3 km/h (3 Bft) 97,87 %
14.03.2022 08:42 8,6 C 8,3 C 3,9 C 92 % 1023,6 hPa 0,0 l/m 0 min 0 min 65 W/m 9,7 km/h (2 Bft) 97,87 %
14.03.2022 08:43 8,7 C 8,3 C 3,9 C 92 % 1023,7 hPa 0,0 l/m 0 min 0 min 66 W/m 9,7 km/h (2 Bft) 100,00 %
14.03.2022 08:46 8,7 C 8,3 C 3,9 C 92 % 1023,7 hPa 0,0 l/m 0 min 0 min 66 W/m 9,7 km/h (2 Bft) 100,00 %
14.03.2022 08:48 8,7 C 8,3 C 3,9 C 92 % 1023,7 hPa 0,0 l/m 0 min 0 min 64 W/m 9,7 km/h (2 Bft) 100,00 %
14.03.2022 08:50 8,7 C 8,3 C 3,9 C 92 % 1023,7 hPa 0,0 l/m 0 min 0 min 63 W/m 6,4 km/h (2 Bft) 100,00 %
14.03.2022 08:52 8,7 C 8,3 C 4,4 C 92 % 1023,8 hPa 0,0 l/m 0 min 0 min 62 W/m 12,9 km/h (3 Bft) 100,00 %
14.03.2022 08:54 8,8 C 8,3 C 3,9 C 92 % 1023,8 hPa 0,0 l/m 0 min 0 min 62 W/m 12,9 km/h (3 Bft) 100,00 %
14.03.2022 08:56 8,8 C 8,3 C 3,9 C 92 % 1023,9 hPa 0,0 l/m 0 min 0 min 63 W/m 12,9 km/h (3 Bft) 100,00 %
14.03.2022 08:58 8,8 C 8,3 C 4,4 C 92 % 1023,9 hPa 0,0 l/m 0 min 0 min 66 W/m 3,2 km/h (1 Bft) 100,00 %
14.03.2022 09:00 8,8 C 8,3 C 4,4 C 92 % 1024,0 hPa 0,0 l/m 0 min 0 min 71 W/m 12,9 km/h (3 Bft) 100,00 %
14.03.2022 09:02 8,8 C 8,3 C 4,4 C 92 % 1024,1 hPa 0,0 l/m 0 min 0 min 78 W/m 6,4 km/h (2 Bft) 100,00 %
14.03.2022 09:04 8,8 C 8,3 C 4,4 C 91 % 1024,1 hPa 0,0 l/m 0 min 0 min 84 W/m 12,9 km/h (3 Bft) 100,00 %
14.03.2022 09:06 8,8 C 8,9 C 4,4 C 91 % 1024,2 hPa 0,0 l/m 0 min 0 min 87 W/m 3,2 km/h (1 Bft) 100,00 %
14.03.2022 09:08 8,9 C 8,9 C 4,4 C 91 % 1024,2 hPa 0,0 l/m 0 min 0 min 91 W/m 9,7 km/h (2 Bft) 100,00 %
14.03.2022 09:10 8,9 C 8,9 C 4,4 C 91 % 1024,2 hPa 0,0 l/m 0 min 0 min 92 W/m 12,9 km/h (3 Bft) 100,00 %
14.03.2022 09:12 8,9 C 8,9 C 4,4 C 91 % 1024,2 hPa 0,0 l/m 0 min 0 min 94 W/m 12,9 km/h (3 Bft) 97,87 %
14.03.2022 09:14 8,9 C 8,9 C 4,4 C 91 % 1024,2 hPa 0,0 l/m 0 min 0 min 98 W/m 6,4 km/h (2 Bft) 97,83 %
14.03.2022 09:16 9,0 C 8,9 C 4,4 C 91 % 1024,3 hPa 0,0 l/m 0 min 0 min 101 W/m 6,4 km/h (2 Bft) 97,87 %
14.03.2022 09:18 9,0 C 8,9 C 4,4 C 91 % 1024,3 hPa 0,0 l/m 0 min 0 min 107 W/m 6,4 km/h (2 Bft) 100,00 %
14.03.2022 09:20 9,1 C 8,9 C 4,4 C 91 % 1024,3 hPa 0,0 l/m 0 min 0 min 112 W/m 12,9 km/h (3 Bft) 97,87 %
14.03.2022 09:22 9,1 C 8,9 C 4,4 C 91 % 1024,3 hPa 0,0 l/m 0 min 0 min 116 W/m 6,4 km/h (2 Bft) 97,87 %
14.03.2022 09:24 9,1 C 8,9 C 4,4 C 91 % 1024,4 hPa 0,0 l/m 0 min 0 min 123 W/m 16,1 km/h (3 Bft) 95,65 %
14.03.2022 09:26 9,1 C 8,9 C 4,4 C 90 % 1024,4 hPa 0,0 l/m 0 min 0 min 130 W/m 12,9 km/h (3 Bft) 97,87 %
14.03.2022 09:28 9,2 C 9,4 C 4,4 C 90 % 1024,4 hPa 0,0 l/m 0 min 0 min 134 W/m 9,7 km/h (2 Bft) 97,87 %
14.03.2022 09:30 9,2 C 9,4 C 4,4 C 90 % 1024,4 hPa 0,0 l/m 0 min 0 min 136 W/m 9,7 km/h (2 Bft) 97,87 %
14.03.2022 09:32 9,2 C 9,4 C 4,4 C 90 % 1024,4 hPa 0,0 l/m 0 min 0 min 133 W/m 9,7 km/h (2 Bft) 95,74 %
14.03.2022 09:34 9,2 C 9,4 C 4,4 C 90 % 1024,4 hPa 0,0 l/m 0 min 0 min 122 W/m 16,1 km/h (3 Bft) 97,87 %
14.03.2022 09:36 9,3 C 9,4 C 4,4 C 90 % 1024,6 hPa 0,0 l/m 0 min 0 min 115 W/m 12,9 km/h (3 Bft) 95,65 %
14.03.2022 09:38 9,3 C 9,4 C 4,4 C 90 % 1024,5 hPa 0,0 l/m 0 min 0 min 119 W/m 6,4 km/h (2 Bft) 53,33 %
14.03.2022 09:40 9,3 C 9,4 C 4,4 C 90 % 1024,6 hPa 0,0 l/m 0 min 0 min 133 W/m 16,1 km/h (3 Bft) 97,87 %
14.03.2022 09:42 9,3 C 9,4 C 4,4 C 89 % 1024,6 hPa 0,0 l/m 0 min 0 min 135 W/m 12,9 km/h (3 Bft) 95,74 %
14.03.2022 09:44 9,4 C 9,4 C 4,4 C 89 % 1024,6 hPa 0,0 l/m 0 min 0 min 130 W/m 12,9 km/h (3 Bft) 95,74 %
14.03.2022 09:46 9,4 C 9,4 C 4,4 C 89 % 1024,6 hPa 0,0 l/m 0 min 0 min 140 W/m 12,9 km/h (3 Bft) 97,87 %
14.03.2022 09:48 9,4 C 9,4 C 4,4 C 89 % 1024,6 hPa 0,0 l/m 0 min 0 min 121 W/m 9,7 km/h (2 Bft) 97,83 %
14.03.2022 09:50 9,5 C 9,4 C 4,4 C 89 % 1024,7 hPa 0,0 l/m 0 min 0 min 106 W/m 6,4 km/h (2 Bft) 97,87 %
14.03.2022 09:52 9,5 C 9,4 C 4,4 C 89 % 1024,7 hPa 0,0 l/m 0 min 0 min 121 W/m 16,1 km/h (3 Bft) 97,87 %
14.03.2022 09:54 9,5 C 9,4 C 4,4 C 88 % 1024,7 hPa 0,0 l/m 0 min 0 min 139 W/m 12,9 km/h (3 Bft) 97,87 %
14.03.2022 09:56 9,6 C 9,4 C 4,4 C 88 % 1024,7 hPa 0,0 l/m 0 min 0 min 156 W/m 12,9 km/h (3 Bft) 95,74 %
14.03.2022 09:58 9,6 C 9,4 C 5,0 C 88 % 1024,8 hPa 0,0 l/m 0 min 0 min 160 W/m 22,5 km/h (4 Bft) 97,87 %
14.03.2022 10:00 9,6 C 9,4 C 4,4 C 88 % 1024,8 hPa 0,0 l/m 0 min 0 min 151 W/m 16,1 km/h (3 Bft) 95,65 %
14.03.2022 10:02 9,6 C 9,4 C 5,0 C 88 % 1024,8 hPa 0,0 l/m 0 min 0 min 148 W/m 16,1 km/h (3 Bft) 95,74 %
14.03.2022 10:04 9,7 C 10,0 C 5,0 C 88 % 1024,7 hPa 0,0 l/m 0 min 0 min 158 W/m 9,7 km/h (2 Bft) 95,74 %
14.03.2022 10:06 9,7 C 10,0 C 5,0 C 88 % 1024,8 hPa 0,0 l/m 0 min 0 min 171 W/m 9,7 km/h (2 Bft) 95,74 %
14.03.2022 10:08 9,7 C 10,0 C 5,0 C 88 % 1024,8 hPa 0,0 l/m 0 min 0 min 168 W/m 6,4 km/h (2 Bft) 95,74 %
14.03.2022 10:10 9,8 C 10,0 C 5,0 C 88 % 1024,8 hPa 0,0 l/m 0 min 0 min 168 W/m 16,1 km/h (3 Bft) 95,74 %
14.03.2022 10:12 9,8 C 10,0 C 5,0 C 88 % 1024,9 hPa 0,0 l/m 0 min 0 min 169 W/m 22,5 km/h (4 Bft) 97,83 %
14.03.2022 10:14 9,8 C 10,0 C 5,0 C 88 % 1025,0 hPa 0,0 l/m 0 min 0 min 156 W/m 12,9 km/h (3 Bft) 97,87 %
14.03.2022 10:16 9,8 C 10,0 C 5,0 C 87 % 1025,0 hPa 0,0 l/m 0 min 0 min 115 W/m 16,1 km/h (3 Bft) 97,87 %
14.03.2022 10:18 9,8 C 9,4 C 4,4 C 87 % 1025,0 hPa 0,0 l/m 0 min 0 min 85 W/m 12,9 km/h (3 Bft) 97,87 %
14.03.2022 10:20 9,8 C 9,4 C 4,4 C 87 % 1025,1 hPa 0,0 l/m 0 min 0 min 72 W/m 12,9 km/h (3 Bft) 97,87 %
14.03.2022 10:22 9,8 C 9,4 C 4,4 C 87 % 1025,1 hPa 0,0 l/m 0 min 0 min 80 W/m 16,1 km/h (3 Bft) 97,87 %
14.03.2022 10:24 9,8 C 9,4 C 4,4 C 87 % 1025,1 hPa 0,0 l/m 0 min 0 min 89 W/m 19,3 km/h (3 Bft) 97,83 %
14.03.2022 10:26 9,8 C 9,4 C 4,4 C 87 % 1025,1 hPa 0,0 l/m 0 min 0 min 88 W/m 6,4 km/h (2 Bft) 97,87 %
14.03.2022 10:28 9,8 C 9,4 C 4,4 C 87 % 1025,2 hPa 0,0 l/m 0 min 0 min 116 W/m 12,9 km/h (3 Bft) 97,87 %
14.03.2022 10:30 9,8 C 10,0 C 5,0 C 87 % 1025,2 hPa 0,0 l/m 0 min 0 min 152 W/m 12,9 km/h (3 Bft) 97,87 %
14.03.2022 10:32 9,9 C 10,0 C 5,0 C 87 % 1025,2 hPa 0,0 l/m 0 min 0 min 174 W/m 16,1 km/h (3 Bft) 97,87 %
14.03.2022 10:34 9,9 C 10,0 C 5,0 C 87 % 1025,3 hPa 0,0 l/m 0 min 0 min 208 W/m 16,1 km/h (3 Bft) 95,74 %
14.03.2022 10:36 9,9 C 10,0 C 5,0 C 86 % 1025,3 hPa 0,0 l/m 0 min 0 min 194 W/m 19,3 km/h (3 Bft) 100,00 %
14.03.2022 10:38 9,9 C 10,0 C 5,0 C 85 % 1025,4 hPa 0,0 l/m 0 min 0 min 182 W/m 16,1 km/h (3 Bft) 100,00 %
14.03.2022 10:40 9,9 C 10,0 C 4,4 C 85 % 1025,4 hPa 0,0 l/m 0 min 0 min 205 W/m 19,3 km/h (3 Bft) 100,00 %
14.03.2022 10:42 9,9 C 10,0 C 4,4 C 84 % 1025,4 hPa 0,0 l/m 0 min 0 min 187 W/m 16,1 km/h (3 Bft) 100,00 %
14.03.2022 10:44 10,0 C 10,0 C 5,0 C 84 % 1025,4 hPa 0,0 l/m 0 min 0 min 198 W/m 9,7 km/h (2 Bft) 100,00 %
14.03.2022 10:46 10,1 C 10,6 C 5,0 C 84 % 1025,5 hPa 0,0 l/m 0 min 0 min 224 W/m 9,7 km/h (2 Bft) 100,00 %
14.03.2022 10:48 10,1 C 10,6 C 5,6 C 85 % 1025,5 hPa 0,0 l/m 2 min 0 min 255 W/m 12,9 km/h (3 Bft) 100,00 %
14.03.2022 10:50 10,2 C 10,6 C 6,1 C 84 % 1025,5 hPa 0,0 l/m 2 min 0 min 262 W/m 16,1 km/h (3 Bft) 100,00 %
14.03.2022 10:52 10,2 C 11,1 C 6,1 C 84 % 1025,5 hPa 0,0 l/m 2 min 0 min 270 W/m 16,1 km/h (3 Bft) 97,87 %
14.03.2022 10:54 10,3 C 10,6 C 6,7 C 84 % 1025,7 hPa 0,0 l/m 0 min 0 min 241 W/m 25,7 km/h (4 Bft) 97,87 %
14.03.2022 10:56 10,3 C 11,1 C 6,7 C 83 % 1025,6 hPa 0,0 l/m 2 min 0 min 260 W/m 16,1 km/h (3 Bft) 95,74 %
14.03.2022 10:58 10,3 C 11,7 C 6,7 C 83 % 1025,7 hPa 0,0 l/m 0 min 0 min 259 W/m 12,9 km/h (3 Bft) 97,87 %
14.03.2022 11:00 10,4 C 11,7 C 6,7 C 83 % 1025,6 hPa 0,0 l/m 0 min 0 min 251 W/m 12,9 km/h (3 Bft) 97,83 %
14.03.2022 11:02 10,4 C 11,7 C 7,2 C 83 % 1025,6 hPa 0,0 l/m 2 min 0 min 286 W/m 12,9 km/h (3 Bft) 95,12 %
14.03.2022 11:04 10,6 C 12,2 C 7,2 C 83 % 1025,6 hPa 0,0 l/m 2 min 0 min 324 W/m 12,9 km/h (3 Bft) 98,11 %
14.03.2022 11:06 10,7 C 13,3 C 8,9 C 83 % 1025,7 hPa 0,0 l/m 2 min 0 min 336 W/m 12,9 km/h (3 Bft) 93,62 %
14.03.2022 11:08 10,8 C 13,3 C 8,3 C 82 % 1025,7 hPa 0,0 l/m 2 min 0 min 301 W/m 16,1 km/h (3 Bft) 97,87 %
14.03.2022 11:10 11,0 C 14,4 C 9,4 C 82 % 1025,7 hPa 0,0 l/m 0 min 0 min 251 W/m 12,9 km/h (3 Bft) 97,87 %
14.03.2022 11:12 11,1 C 14,4 C 9,4 C 82 % 1025,7 hPa 0,0 l/m 0 min 0 min 237 W/m 16,1 km/h (3 Bft) 97,83 %
14.03.2022 11:14 11,2 C 14,4 C 10,0 C 81 % 1025,7 hPa 0,0 l/m 0 min 0 min 202 W/m 16,1 km/h (3 Bft) 95,74 %
14.03.2022 11:16 11,3 C 15,6 C 10,6 C 81 % 1025,7 hPa 0,0 l/m 2 min 0 min 425 W/m 12,9 km/h (3 Bft) 97,56 %
14.03.2022 11:18 11,5 C 16,1 C 11,7 C 80 % 1025,7 hPa 0,0 l/m 2 min 0 min 664 W/m 19,3 km/h (3 Bft) 98,11 %
14.03.2022 11:20 11,7 C 16,1 C 11,1 C 80 % 1025,8 hPa 0,0 l/m 2 min 0 min 643 W/m 16,1 km/h (3 Bft) 97,87 %
14.03.2022 11:22 11,7 C 15,0 C 10,6 C 79 % 1025,8 hPa 0,0 l/m 2 min 0 min 371 W/m 16,1 km/h (3 Bft) 95,74 %
14.03.2022 11:24 11,8 C 14,4 C 10,0 C 79 % 1025,9 hPa 0,0 l/m 2 min 0 min 344 W/m 16,1 km/h (3 Bft) 95,65 %
14.03.2022 11:26 11,8 C 13,9 C 9,4 C 78 % 1025,9 hPa 0,0 l/m 0 min 0 min 274 W/m 19,3 km/h (3 Bft) 97,87 %
14.03.2022 11:28 11,7 C 12,8 C 9,4 C 78 % 1025,8 hPa 0,0 l/m 2 min 0 min 285 W/m 29,0 km/h (5 Bft) 97,87 %
14.03.2022 11:30 11,7 C 12,8 C 8,9 C 78 % 1025,9 hPa 0,0 l/m 0 min 0 min 240 W/m 16,1 km/h (3 Bft) 93,62 %
14.03.2022 11:32 11,7 C 13,3 C 9,4 C 78 % 1025,9 hPa 0,0 l/m 2 min 0 min 294 W/m 12,9 km/h (3 Bft) 97,56 %
14.03.2022 11:34 11,7 C 13,3 C 9,4 C 78 % 1025,9 hPa 0,0 l/m 2 min 0 min 302 W/m 16,1 km/h (3 Bft) 98,08 %
14.03.2022 11:36 11,7 C 13,3 C 9,4 C 78 % 1025,9 hPa 0,0 l/m 2 min 0 min 307 W/m 12,9 km/h (3 Bft) 100,00 %
14.03.2022 11:38 11,7 C 13,3 C 9,4 C 79 % 1026,0 hPa 0,0 l/m 2 min 0 min 440 W/m 12,9 km/h (3 Bft) 100,00 %
14.03.2022 11:40 11,8 C 12,8 C 9,4 C 79 % 1026,0 hPa 0,0 l/m 0 min 0 min 203 W/m 12,9 km/h (3 Bft) 100,00 %
14.03.2022 11:42 11,8 C 12,2 C 8,9 C 78 % 1026,0 hPa 0,0 l/m 0 min 0 min 150 W/m 19,3 km/h (3 Bft) 97,87 %
14.03.2022 11:44 11,7 C 11,7 C 8,3 C 78 % 1026,1 hPa 0,0 l/m 0 min 0 min 134 W/m 16,1 km/h (3 Bft) 100,00 %
14.03.2022 11:46 11,6 C 11,7 C 8,3 C 78 % 1026,1 hPa 0,0 l/m 0 min 0 min 122 W/m 6,4 km/h (2 Bft) 100,00 %
14.03.2022 11:48 11,6 C 11,7 C 8,3 C 78 % 1026,1 hPa 0,0 l/m 0 min 0 min 132 W/m 12,9 km/h (3 Bft) 98,08 %
14.03.2022 11:50 11,5 C 12,2 C 8,3 C 78 % 1026,1 hPa 0,0 l/m 0 min 0 min 184 W/m 9,7 km/h (2 Bft) 100,00 %
14.03.2022 11:52 11,5 C 12,8 C 8,3 C 79 % 1026,2 hPa 0,0 l/m 0 min 0 min 269 W/m 16,1 km/h (3 Bft) 100,00 %
14.03.2022 11:54 11,6 C 13,3 C 8,9 C 79 % 1026,1 hPa 0,0 l/m 2 min 0 min 329 W/m 19,3 km/h (3 Bft) 100,00 %
14.03.2022 11:56 11,7 C 13,9 C 9,4 C 79 % 1026,1 hPa 0,0 l/m 2 min 0 min 435 W/m 12,9 km/h (3 Bft) 100,00 %
14.03.2022 11:58 11,8 C 14,4 C 10,0 C 79 % 1026,1 hPa 0,0 l/m 2 min 0 min 464 W/m 19,3 km/h (3 Bft) 100,00 %
14.03.2022 12:00 11,9 C 15,0 C 10,6 C 79 % 1026,1 hPa 0,0 l/m 2 min 0 min 464 W/m 6,4 km/h (2 Bft) 97,83 %
14.03.2022 12:02 12,1 C 14,4 C 10,6 C 78 % 1026,2 hPa 0,0 l/m 2 min 0 min 568 W/m 19,3 km/h (3 Bft) 97,56 %
14.03.2022 12:04 12,1 C 14,4 C 10,6 C 78 % 1026,2 hPa 0,0 l/m 2 min 0 min 308 W/m 12,9 km/h (3 Bft) 100,00 %
14.03.2022 12:08 12,3 C 14,4 C 11,1 C 77 % 1026,2 hPa 0,0 l/m 4 min 0 min 377 W/m 19,3 km/h (3 Bft) 100,00 %
14.03.2022 12:10 12,4 C 13,9 C 11,1 C 77 % 1026,2 hPa 0,0 l/m 2 min 0 min 537 W/m 16,1 km/h (3 Bft) 97,83 %
14.03.2022 12:12 12,5 C 13,9 C 10,6 C 76 % 1026,2 hPa 0,0 l/m 2 min 0 min 480 W/m 16,1 km/h (3 Bft) 97,87 %
14.03.2022 12:14 12,5 C 13,3 C 10,6 C 75 % 1026,2 hPa 0,0 l/m 2 min 0 min 424 W/m 19,3 km/h (3 Bft) 97,87 %
14.03.2022 12:16 12,5 C 13,9 C 10,6 C 75 % 1026,2 hPa 0,0 l/m 2 min 0 min 341 W/m 16,1 km/h (3 Bft) 97,56 %
14.03.2022 12:18 12,6 C 13,9 C 10,0 C 76 % 1026,2 hPa 0,0 l/m 2 min 0 min 325 W/m 19,3 km/h (3 Bft) 94,34 %
14.03.2022 12:20 12,6 C 13,9 C 10,6 C 75 % 1026,3 hPa 0,0 l/m 0 min 0 min 283 W/m 16,1 km/h (3 Bft) 95,74 %
14.03.2022 12:22 12,6 C 13,9 C 10,6 C 74 % 1026,2 hPa 0,0 l/m 0 min 0 min 283 W/m 12,9 km/h (3 Bft) 97,83 %
14.03.2022 12:24 12,6 C 14,4 C 10,6 C 74 % 1026,2 hPa 0,0 l/m 0 min 0 min 283 W/m 16,1 km/h (3 Bft) 97,87 %
14.03.2022 12:26 12,6 C 13,9 C 10,6 C 73 % 1026,3 hPa 0,0 l/m 0 min 0 min 238 W/m 16,1 km/h (3 Bft) 95,74 %
14.03.2022 12:28 12,5 C 13,3 C 10,0 C 73 % 1026,3 hPa 0,0 l/m 0 min 0 min 171 W/m 22,5 km/h (4 Bft) 97,87 %
14.03.2022 12:30 12,4 C 12,8 C 9,4 C 72 % 1026,2 hPa 0,0 l/m 0 min 0 min 157 W/m 16,1 km/h (3 Bft) 95,74 %
14.03.2022 12:32 12,3 C 12,8 C 8,9 C 74 % 1026,3 hPa 0,0 l/m 0 min 0 min 166 W/m 16,1 km/h (3 Bft) 97,56 %
14.03.2022 12:34 12,2 C 12,2 C 8,9 C 73 % 1026,2 hPa 0,0 l/m 0 min 0 min 195 W/m 19,3 km/h (3 Bft) 96,08 %
14.03.2022 12:36 12,2 C 12,8 C 8,9 C 74 % 1026,2 hPa 0,0 l/m 0 min 0 min 225 W/m 16,1 km/h (3 Bft) 98,31 %
14.03.2022 12:38 12,1 C 12,2 C 8,9 C 73 % 1026,3 hPa 0,0 l/m 0 min 0 min 202 W/m 12,9 km/h (3 Bft) 95,74 %
14.03.2022 12:40 12,1 C 12,8 C 8,9 C 73 % 1026,3 hPa 0,0 l/m 0 min 0 min 241 W/m 12,9 km/h (3 Bft) 97,14 %
14.03.2022 12:42 12,1 C 12,8 C 8,9 C 73 % 1026,3 hPa 0,0 l/m 0 min 0 min 222 W/m 12,9 km/h (3 Bft) 97,87 %
14.03.2022 12:44 12,2 C 13,3 C 8,9 C 74 % 1026,3 hPa 0,0 l/m 0 min 0 min 214 W/m 6,4 km/h (2 Bft) 95,74 %
14.03.2022 12:46 12,2 C 12,8 C 8,9 C 74 % 1026,2 hPa 0,0 l/m 0 min 0 min 242 W/m 25,7 km/h (4 Bft) 100,00 %
14.03.2022 12:48 12,2 C 12,8 C 8,9 C 74 % 1026,3 hPa 0,0 l/m 0 min 0 min 209 W/m 19,3 km/h (3 Bft) 96,23 %
14.03.2022 12:50 12,2 C 12,2 C 8,9 C 74 % 1026,3 hPa 0,2 l/m 0 min 0 min 156 W/m 19,3 km/h (3 Bft) 97,87 %
14.03.2022 12:52 12,2 C 12,2 C 8,9 C 75 % 1026,4 hPa 0,0 l/m 0 min 0 min 134 W/m 22,5 km/h (4 Bft) 95,74 %
14.03.2022 12:54 12,1 C 12,2 C 8,3 C 74 % 1026,3 hPa 0,0 l/m 0 min 0 min 132 W/m 32,2 km/h (5 Bft) 97,87 %
14.03.2022 12:56 12,1 C 11,7 C 8,3 C 75 % 1026,3 hPa 0,0 l/m 0 min 0 min 135 W/m 6,4 km/h (2 Bft) 97,83 %
14.03.2022 12:58 12,1 C 11,7 C 8,3 C 76 % 1026,3 hPa 0,0 l/m 0 min 0 min 144 W/m 12,9 km/h (3 Bft) 97,87 %
14.03.2022 13:00 12,0 C 11,7 C 8,3 C 76 % 1026,4 hPa 0,0 l/m 0 min 0 min 143 W/m 16,1 km/h (3 Bft) 97,87 %
14.03.2022 13:02 11,9 C 11,7 C 8,3 C 76 % 1026,4 hPa 0,0 l/m 0 min 0 min 137 W/m 16,1 km/h (3 Bft) 97,56 %
14.03.2022 13:04 11,9 C 11,7 C 8,3 C 76 % 1026,5 hPa 0,0 l/m 0 min 0 min 135 W/m 12,9 km/h (3 Bft) 96,23 %
14.03.2022 13:06 11,8 C 11,7 C 7,8 C 76 % 1026,4 hPa 0,0 l/m 0 min 0 min 141 W/m 19,3 km/h (3 Bft) 96,55 %
14.03.2022 13:08 11,8 C 11,7 C 7,8 C 76 % 1026,5 hPa 0,0 l/m 0 min 0 min 147 W/m 19,3 km/h (3 Bft) 97,37 %
14.03.2022 13:10 11,7 C 11,7 C 7,8 C 76 % 1026,5 hPa 0,0 l/m 0 min 0 min 154 W/m 19,3 km/h (3 Bft) 97,87 %
14.03.2022 13:12 11,6 C 11,1 C 7,8 C 76 % 1026,5 hPa 0,0 l/m 0 min 0 min 161 W/m 22,5 km/h (4 Bft) 97,87 %
14.03.2022 13:14 11,6 C 11,7 C 7,8 C 76 % 1026,5 hPa 0,0 l/m 0 min 0 min 168 W/m 12,9 km/h (3 Bft) 97,87 %
14.03.2022 13:16 11,6 C 11,7 C 7,8 C 76 % 1026,5 hPa 0,0 l/m 0 min 0 min 168 W/m 19,3 km/h (3 Bft) 97,87 %
14.03.2022 13:18 11,6 C 11,1 C 7,8 C 77 % 1026,5 hPa 0,0 l/m 0 min 0 min 163 W/m 25,7 km/h (4 Bft) 97,87 %
14.03.2022 13:20 11,5 C 11,1 C 7,8 C 76 % 1026,6 hPa 0,0 l/m 0 min 0 min 160 W/m 29,0 km/h (5 Bft) 97,83 %
14.03.2022 13:22 11,6 C 11,7 C 7,8 C 77 % 1026,6 hPa 0,0 l/m 0 min 0 min 166 W/m 22,5 km/h (4 Bft) 95,74 %
14.03.2022 13:24 11,5 C 11,1 C 7,8 C 77 % 1026,6 hPa 0,0 l/m 0 min 0 min 173 W/m 25,7 km/h (4 Bft) 95,74 %
14.03.2022 13:26 11,5 C 11,1 C 7,8 C 77 % 1026,6 hPa 0,0 l/m 0 min 0 min 171 W/m 12,9 km/h (3 Bft) 93,62 %
14.03.2022 13:28 11,5 C 11,7 C 7,8 C 77 % 1026,5 hPa 0,0 l/m 0 min 0 min 163 W/m 19,3 km/h (3 Bft) 95,74 %
14.03.2022 13:30 11,6 C 11,7 C 8,3 C 78 % 1026,6 hPa 0,0 l/m 0 min 0 min 155 W/m 9,7 km/h (2 Bft) 95,65 %
14.03.2022 13:32 11,6 C 11,7 C 8,3 C 78 % 1026,5 hPa 0,0 l/m 0 min 0 min 153 W/m 9,7 km/h (2 Bft) 91,49 %
14.03.2022 13:34 11,6 C 11,7 C 8,3 C 78 % 1026,6 hPa 0,0 l/m 0 min 0 min 155 W/m 16,1 km/h (3 Bft) 95,74 %
14.03.2022 13:36 11,7 C 11,7 C 8,3 C 78 % 1026,6 hPa 0,0 l/m 0 min 0 min 157 W/m 12,9 km/h (3 Bft) 95,74 %
14.03.2022 13:38 11,7 C 11,7 C 8,3 C 78 % 1026,7 hPa 0,0 l/m 0 min 0 min 162 W/m 6,4 km/h (2 Bft) 95,74 %
14.03.2022 13:40 11,7 C 11,7 C 8,3 C 77 % 1026,6 hPa 0,0 l/m 0 min 0 min 172 W/m 12,9 km/h (3 Bft) 97,87 %
14.03.2022 13:42 11,8 C 11,7 C 8,3 C 76 % 1026,6 hPa 0,0 l/m 0 min 0 min 184 W/m 12,9 km/h (3 Bft) 97,83 %
14.03.2022 13:44 11,8 C 11,7 C 8,3 C 76 % 1026,7 hPa 0,0 l/m 0 min 0 min 193 W/m 12,9 km/h (3 Bft) 97,87 %
14.03.2022 13:46 11,8 C 12,2 C 8,3 C 76 % 1026,7 hPa 0,0 l/m 0 min 0 min 198 W/m 12,9 km/h (3 Bft) 97,87 %
14.03.2022 13:48 11,8 C 12,2 C 8,3 C 75 % 1026,7 hPa 0,0 l/m 0 min 0 min 217 W/m 12,9 km/h (3 Bft) 95,74 %
14.03.2022 13:50 11,9 C 12,2 C 8,3 C 75 % 1026,7 hPa 0,0 l/m 0 min 0 min 250 W/m 12,9 km/h (3 Bft) 97,87 %
14.03.2022 13:52 11,9 C 12,2 C 8,9 C 75 % 1026,7 hPa 0,0 l/m 0 min 0 min 270 W/m 16,1 km/h (3 Bft) 95,74 %
14.03.2022 13:54 12,0 C 12,8 C 8,9 C 75 % 1026,7 hPa 0,0 l/m 2 min 0 min 293 W/m 16,1 km/h (3 Bft) 97,83 %
14.03.2022 13:56 12,1 C 12,8 C 8,9 C 74 % 1026,7 hPa 0,0 l/m 2 min 0 min 311 W/m 19,3 km/h (3 Bft) 97,87 %
14.03.2022 13:58 12,1 C 12,8 C 8,9 C 73 % 1026,7 hPa 0,0 l/m 2 min 0 min 302 W/m 19,3 km/h (3 Bft) 97,87 %
14.03.2022 14:00 12,2 C 12,8 C 8,9 C 73 % 1026,7 hPa 0,0 l/m 0 min 0 min 262 W/m 12,9 km/h (3 Bft) 97,87 %
14.03.2022 14:02 12,2 C 12,8 C 8,9 C 73 % 1026,7 hPa 0,0 l/m 0 min 0 min 245 W/m 12,9 km/h (3 Bft) 93,62 %
14.03.2022 14:04 12,2 C 12,8 C 8,9 C 72 % 1026,7 hPa 0,0 l/m 0 min 0 min 237 W/m 16,1 km/h (3 Bft) 97,87 %
14.03.2022 14:06 12,3 C 12,8 C 8,9 C 73 % 1026,8 hPa 0,0 l/m 0 min 0 min 232 W/m 16,1 km/h (3 Bft) 95,65 %
14.03.2022 14:08 12,3 C 12,8 C 8,9 C 72 % 1026,8 hPa 0,0 l/m 0 min 0 min 235 W/m 12,9 km/h (3 Bft) 100,00 %
14.03.2022 14:10 12,4 C 12,8 C 8,9 C 72 % 1026,8 hPa 0,0 l/m 0 min 0 min 235 W/m 12,9 km/h (3 Bft) 100,00 %
14.03.2022 14:12 12,5 C 12,8 C 9,4 C 72 % 1026,7 hPa 0,0 l/m 0 min 0 min 223 W/m 12,9 km/h (3 Bft) 100,00 %
14.03.2022 14:14 12,6 C 13,3 C 9,4 C 72 % 1026,8 hPa 0,0 l/m 0 min 0 min 217 W/m 12,9 km/h (3 Bft) 97,87 %
14.03.2022 14:16 12,7 C 13,3 C 9,4 C 72 % 1026,7 hPa 0,0 l/m 0 min 0 min 219 W/m 12,9 km/h (3 Bft) 100,00 %
14.03.2022 14:18 12,7 C 12,8 C 9,4 C 71 % 1026,7 hPa 0,0 l/m 0 min 0 min 226 W/m 12,9 km/h (3 Bft) 97,83 %
14.03.2022 14:20 12,7 C 12,8 C 8,9 C 71 % 1026,8 hPa 0,0 l/m 0 min 0 min 248 W/m 19,3 km/h (3 Bft) 97,87 %
14.03.2022 14:22 12,7 C 13,9 C 9,4 C 71 % 1026,8 hPa 0,0 l/m 2 min 0 min 342 W/m 9,7 km/h (2 Bft) 97,87 %
14.03.2022 14:24 12,8 C 14,4 C 9,4 C 71 % 1026,7 hPa 0,0 l/m 2 min 0 min 420 W/m 6,4 km/h (2 Bft) 97,87 %
14.03.2022 14:26 13,0 C 16,1 C 9,4 C 71 % 1026,7 hPa 0,0 l/m 2 min 0 min 483 W/m 12,9 km/h (3 Bft) 97,87 %
14.03.2022 14:28 13,2 C 16,1 C 10,0 C 70 % 1026,7 hPa 0,0 l/m 2 min 0 min 441 W/m 12,9 km/h (3 Bft) 97,87 %
14.03.2022 14:30 13,3 C 16,1 C 10,0 C 70 % 1026,7 hPa 0,0 l/m 2 min 0 min 399 W/m 12,9 km/h (3 Bft) 97,83 %
14.03.2022 14:32 13,3 C 15,6 C 10,0 C 70 % 1026,7 hPa 0,0 l/m 2 min 0 min 335 W/m 19,3 km/h (3 Bft) 95,74 %
14.03.2022 14:34 13,4 C 15,0 C 10,0 C 70 % 1026,7 hPa 0,0 l/m 2 min 0 min 281 W/m 16,1 km/h (3 Bft) 97,87 %
14.03.2022 14:36 13,4 C 14,4 C 10,0 C 70 % 1026,7 hPa 0,0 l/m 0 min 0 min 246 W/m 9,7 km/h (2 Bft) 97,87 %
14.03.2022 14:38 13,4 C 14,4 C 10,0 C 70 % 1026,8 hPa 0,0 l/m 0 min 0 min 231 W/m 12,9 km/h (3 Bft) 97,87 %
14.03.2022 14:40 13,4 C 13,9 C 9,4 C 69 % 1026,8 hPa 0,0 l/m 0 min 0 min 252 W/m 12,9 km/h (3 Bft) 97,87 %
14.03.2022 14:42 13,4 C 13,9 C 9,4 C 70 % 1026,9 hPa 0,0 l/m 2 min 0 min 254 W/m 12,9 km/h (3 Bft) 97,83 %
14.03.2022 14:44 13,4 C 13,9 C 9,4 C 69 % 1026,8 hPa 0,0 l/m 0 min 0 min 241 W/m 16,1 km/h (3 Bft) 97,87 %
14.03.2022 14:46 13,3 C 13,9 C 9,4 C 69 % 1026,8 hPa 0,0 l/m 0 min 0 min 219 W/m 12,9 km/h (3 Bft) 97,87 %
14.03.2022 14:48 13,3 C 13,9 C 9,4 C 69 % 1026,9 hPa 0,0 l/m 0 min 0 min 193 W/m 9,7 km/h (2 Bft) 95,74 %
14.03.2022 14:50 13,3 C 13,3 C 9,4 C 69 % 1026,9 hPa 0,0 l/m 0 min 0 min 173 W/m 12,9 km/h (3 Bft) 97,87 %
14.03.2022 14:52 13,3 C 13,3 C 9,4 C 69 % 1027,0 hPa 0,0 l/m 0 min 0 min 168 W/m 16,1 km/h (3 Bft) 97,87 %
14.03.2022 14:54 13,2 C 12,8 C 9,4 C 69 % 1026,9 hPa 0,0 l/m 0 min 0 min 164 W/m 9,7 km/h (2 Bft) 97,83 %
14.03.2022 14:56 13,2 C 12,8 C 9,4 C 70 % 1027,0 hPa 0,0 l/m 0 min 0 min 152 W/m 16,1 km/h (3 Bft) 100,00 %
14.03.2022 14:58 13,2 C 12,8 C 9,4 C 70 % 1027,0 hPa 0,0 l/m 0 min 0 min 142 W/m 6,4 km/h (2 Bft) 100,00 %
14.03.2022 15:00 13,2 C 12,8 C 9,4 C 70 % 1027,0 hPa 0,0 l/m 0 min 0 min 138 W/m 9,7 km/h (2 Bft) 100,00 %
14.03.2022 15:02 13,1 C 12,8 C 8,9 C 70 % 1027,0 hPa 0,0 l/m 0 min 0 min 138 W/m 12,9 km/h (3 Bft) 100,00 %
14.03.2022 15:04 13,1 C 12,8 C 8,9 C 70 % 1027,1 hPa 0,0 l/m 0 min 0 min 145 W/m 12,9 km/h (3 Bft) 100,00 %
14.03.2022 15:06 13,1 C 12,8 C 8,9 C 71 % 1027,1 hPa 0,0 l/m 0 min 0 min 169 W/m 16,1 km/h (3 Bft) 100,00 %
14.03.2022 15:08 13,0 C 13,3 C 8,9 C 71 % 1027,0 hPa 0,0 l/m 2 min 0 min 246 W/m 16,1 km/h (3 Bft) 100,00 %
14.03.2022 15:10 13,0 C 13,9 C 9,4 C 71 % 1027,0 hPa 0,0 l/m 2 min 0 min 316 W/m 16,1 km/h (3 Bft) 100,00 %
14.03.2022 15:12 13,0 C 13,9 C 9,4 C 71 % 1027,0 hPa 0,0 l/m 2 min 0 min 252 W/m 22,5 km/h (4 Bft) 100,00 %
14.03.2022 15:14 13,0 C 13,9 C 9,4 C 71 % 1026,9 hPa 0,0 l/m 2 min 0 min 246 W/m 9,7 km/h (2 Bft) 100,00 %
14.03.2022 15:16 13,0 C 13,9 C 9,4 C 70 % 1027,0 hPa 0,0 l/m 2 min 0 min 240 W/m 12,9 km/h (3 Bft) 100,00 %
14.03.2022 15:18 13,0 C 13,9 C 9,4 C 71 % 1027,0 hPa 0,0 l/m 2 min 0 min 257 W/m 6,4 km/h (2 Bft) 100,00 %
14.03.2022 15:20 13,1 C 14,4 C 9,4 C 71 % 1027,0 hPa 0,0 l/m 2 min 0 min 290 W/m 16,1 km/h (3 Bft) 100,00 %
14.03.2022 15:22 13,1 C 13,9 C 9,4 C 70 % 1026,9 hPa 0,0 l/m 2 min 0 min 258 W/m 9,7 km/h (2 Bft) 100,00 %
14.03.2022 15:24 13,1 C 13,9 C 9,4 C 70 % 1027,0 hPa 0,0 l/m 2 min 0 min 250 W/m 12,9 km/h (3 Bft) 100,00 %
14.03.2022 15:26 13,2 C 13,9 C 9,4 C 70 % 1027,0 hPa 0,0 l/m 2 min 0 min 239 W/m 6,4 km/h (2 Bft) 97,87 %
14.03.2022 15:28 13,2 C 13,9 C 9,4 C 70 % 1027,0 hPa 0,0 l/m 2 min 0 min 233 W/m 6,4 km/h (2 Bft) 100,00 %
14.03.2022 15:30 13,2 C 13,9 C 9,4 C 70 % 1027,1 hPa 0,0 l/m 2 min 0 min 234 W/m 12,9 km/h (3 Bft) 100,00 %
14.03.2022 15:32 13,2 C 13,9 C 9,4 C 70 % 1027,1 hPa 0,0 l/m 0 min 0 min 209 W/m 12,9 km/h (3 Bft) 100,00 %
14.03.2022 15:34 13,1 C 13,3 C 8,9 C 69 % 1027,1 hPa 0,0 l/m 0 min 0 min 204 W/m 16,1 km/h (3 Bft) 100,00 %
14.03.2022 15:36 13,1 C 13,3 C 9,4 C 70 % 1027,0 hPa 0,0 l/m 0 min 0 min 200 W/m 16,1 km/h (3 Bft) 100,00 %
14.03.2022 15:38 13,0 C 13,3 C 9,4 C 70 % 1027,0 hPa 0,0 l/m 0 min 0 min 202 W/m 6,4 km/h (2 Bft) 100,00 %
14.03.2022 15:40 13,0 C 13,3 C 8,9 C 71 % 1027,0 hPa 0,0 l/m 2 min 0 min 212 W/m 9,7 km/h (2 Bft) 100,00 %
14.03.2022 15:42 13,1 C 13,9 C 9,4 C 71 % 1027,0 hPa 0,0 l/m 2 min 0 min 227 W/m 12,9 km/h (3 Bft) 100,00 %
14.03.2022 15:44 13,1 C 13,9 C 8,9 C 71 % 1027,0 hPa 0,0 l/m 2 min 0 min 235 W/m 12,9 km/h (3 Bft) 100,00 %
14.03.2022 15:46 13,1 C 13,9 C 8,9 C 70 % 1027,0 hPa 0,0 l/m 2 min 0 min 250 W/m 12,9 km/h (3 Bft) 97,87 %
14.03.2022 15:48 13,1 C 13,9 C 8,9 C 71 % 1027,1 hPa 0,0 l/m 2 min 0 min 240 W/m 9,7 km/h (2 Bft) 100,00 %
14.03.2022 15:50 13,1 C 13,9 C 8,9 C 70 % 1027,0 hPa 0,0 l/m 2 min 0 min 250 W/m 12,9 km/h (3 Bft) 100,00 %
14.03.2022 15:52 13,1 C 14,4 C 8,9 C 71 % 1027,0 hPa 0,0 l/m 2 min 0 min 279 W/m 6,4 km/h (2 Bft) 97,83 %
14.03.2022 15:54 13,2 C 15,0 C 9,4 C 71 % 1027,0 hPa 0,0 l/m 2 min 0 min 302 W/m 9,7 km/h (2 Bft) 100,00 %
14.03.2022 15:56 13,2 C 15,0 C 9,4 C 71 % 1027,0 hPa 0,0 l/m 2 min 0 min 264 W/m 3,2 km/h (1 Bft) 97,87 %
14.03.2022 15:58 13,3 C 15,0 C 9,4 C 71 % 1027,0 hPa 0,0 l/m 2 min 0 min 248 W/m 3,2 km/h (1 Bft) 97,87 %
14.03.2022 16:00 13,3 C 15,0 C 9,4 C 71 % 1027,0 hPa 0,0 l/m 2 min 0 min 242 W/m 6,4 km/h (2 Bft) 97,87 %
14.03.2022 16:02 13,4 C 15,0 C 9,4 C 71 % 1027,0 hPa 0,0 l/m 2 min 0 min 236 W/m 9,7 km/h (2 Bft) 95,74 %
14.03.2022 16:04 13,3 C 14,4 C 9,4 C 70 % 1027,0 hPa 0,0 l/m 2 min 0 min 219 W/m 16,1 km/h (3 Bft) 97,83 %
14.03.2022 16:06 13,3 C 14,4 C 9,4 C 70 % 1027,0 hPa 0,0 l/m 2 min 0 min 234 W/m 9,7 km/h (2 Bft) 95,74 %
14.03.2022 16:10 13,4 C 18,3 C 9,4 C 70 % 1026,9 hPa 0,0 l/m 4 min 0 min 452 W/m 12,9 km/h (3 Bft) 100,00 %
14.03.2022 16:15 13,7 C 19,4 C 9,4 C 70 % 1026,9 hPa 0,0 l/m 5 min 0 min 376 W/m 12,9 km/h (3 Bft) 96,49 %
14.03.2022 16:20 13,8 C 19,4 C 9,4 C 68 % 1026,9 hPa 0,0 l/m 5 min 0 min 403 W/m 12,9 km/h (3 Bft) 98,25 %
14.03.2022 16:25 13,7 C 16,7 C 8,9 C 67 % 1027,0 hPa 0,0 l/m 5 min 0 min 272 W/m 16,1 km/h (3 Bft) 97,37 %
14.03.2022 16:30 13,5 C 16,1 C 8,9 C 67 % 1026,9 hPa 0,0 l/m 5 min 0 min 252 W/m 19,3 km/h (3 Bft) 97,37 %
14.03.2022 16:34 13,4 C 13,9 C 8,3 C 68 % 1026,8 hPa 0,0 l/m 4 min 0 min 294 W/m 9,7 km/h (2 Bft) 97,43 %
14.03.2022 16:36 13,4 C 13,9 C 8,3 C 68 % 1026,8 hPa 0,0 l/m 2 min 0 min 285 W/m 16,1 km/h (3 Bft) 93,44 %
14.03.2022 16:38 13,3 C 13,3 C 8,3 C 68 % 1026,8 hPa 0,0 l/m 2 min 0 min 273 W/m 19,3 km/h (3 Bft) 93,62 %
14.03.2022 16:40 13,3 C 12,8 C 8,3 C 68 % 1026,8 hPa 0,0 l/m 2 min 0 min 234 W/m 19,3 km/h (3 Bft) 93,62 %
14.03.2022 16:42 13,3 C 12,8 C 8,3 C 67 % 1026,8 hPa 0,0 l/m 2 min 0 min 234 W/m 12,9 km/h (3 Bft) 95,74 %
14.03.2022 16:44 13,2 C 12,8 C 8,3 C 68 % 1026,8 hPa 0,0 l/m 2 min 0 min 256 W/m 9,7 km/h (2 Bft) 93,48 %
14.03.2022 16:46 13,2 C 12,8 C 8,3 C 67 % 1026,9 hPa 0,0 l/m 2 min 0 min 256 W/m 16,1 km/h (3 Bft) 91,49 %
14.03.2022 16:48 13,2 C 12,8 C 8,3 C 67 % 1026,8 hPa 0,0 l/m 2 min 0 min 248 W/m 12,9 km/h (3 Bft) 93,62 %
14.03.2022 16:50 13,2 C 12,8 C 8,3 C 67 % 1026,8 hPa 0,0 l/m 2 min 0 min 239 W/m 16,1 km/h (3 Bft) 95,74 %
14.03.2022 16:52 13,2 C 13,3 C 8,3 C 66 % 1026,9 hPa 0,0 l/m 2 min 0 min 231 W/m 12,9 km/h (3 Bft) 95,74 %
14.03.2022 16:54 13,2 C 13,3 C 8,3 C 66 % 1026,9 hPa 0,0 l/m 2 min 0 min 207 W/m 16,1 km/h (3 Bft) 93,62 %
14.03.2022 16:56 13,2 C 13,3 C 8,3 C 66 % 1027,0 hPa 0,0 l/m 2 min 0 min 204 W/m 6,4 km/h (2 Bft) 95,65 %
14.03.2022 16:58 13,3 C 13,9 C 8,3 C 67 % 1027,0 hPa 0,0 l/m 2 min 0 min 219 W/m 6,4 km/h (2 Bft) 95,74 %
14.03.2022 17:00 13,3 C 14,4 C 8,3 C 67 % 1027,0 hPa 0,0 l/m 2 min 0 min 219 W/m 3,2 km/h (1 Bft) 95,74 %
14.03.2022 17:02 13,3 C 14,4 C 8,3 C 68 % 1027,0 hPa 0,0 l/m 2 min 0 min 212 W/m 6,4 km/h (2 Bft) 95,74 %
14.03.2022 17:04 13,4 C 13,9 C 8,3 C 68 % 1027,0 hPa 0,0 l/m 2 min 0 min 138 W/m 6,4 km/h (2 Bft) 95,74 %
14.03.2022 17:06 13,3 C 13,3 C 8,3 C 68 % 1027,1 hPa 0,0 l/m 2 min 0 min 112 W/m 12,9 km/h (3 Bft) 95,74 %
14.03.2022 17:08 13,3 C 13,3 C 8,3 C 68 % 1027,1 hPa 0,0 l/m 2 min 0 min 112 W/m 6,4 km/h (2 Bft) 95,65 %
14.03.2022 17:10 13,3 C 12,8 C 8,3 C 68 % 1027,2 hPa 0,0 l/m 2 min 0 min 177 W/m 6,4 km/h (2 Bft) 93,62 %
14.03.2022 17:12 13,3 C 12,8 C 8,3 C 68 % 1027,3 hPa 0,0 l/m 2 min 0 min 174 W/m 6,4 km/h (2 Bft) 95,74 %
14.03.2022 17:14 13,3 C 12,8 C 8,3 C 68 % 1027,4 hPa 0,0 l/m 2 min 0 min 174 W/m 9,7 km/h (2 Bft) 93,62 %
14.03.2022 17:16 13,2 C 12,8 C 8,3 C 68 % 1027,4 hPa 0,0 l/m 2 min 0 min 169 W/m 6,4 km/h (2 Bft) 97,87 %
14.03.2022 17:18 13,2 C 12,8 C 8,3 C 68 % 1027,4 hPa 0,0 l/m 2 min 0 min 143 W/m 3,2 km/h (1 Bft) 97,87 %
14.03.2022 17:20 13,1 C 12,8 C 8,3 C 68 % 1027,4 hPa 0,0 l/m 0 min 0 min 83 W/m 9,7 km/h (2 Bft) 97,83 %
14.03.2022 17:22 13,1 C 12,8 C 8,3 C 68 % 1027,4 hPa 0,0 l/m 0 min 0 min 70 W/m 6,4 km/h (2 Bft) 95,74 %
14.03.2022 17:24 13,1 C 12,8 C 8,3 C 68 % 1027,5 hPa 0,0 l/m 0 min 0 min 74 W/m 9,7 km/h (2 Bft) 91,49 %
14.03.2022 17:26 13,1 C 12,8 C 8,3 C 69 % 1027,6 hPa 0,0 l/m 0 min 0 min 80 W/m 6,4 km/h (2 Bft) 100,00 %
14.03.2022 17:28 13,0 C 12,8 C 8,3 C 69 % 1027,6 hPa 0,0 l/m 0 min 0 min 78 W/m 12,9 km/h (3 Bft) 100,00 %
14.03.2022 17:30 12,9 C 12,2 C 8,3 C 68 % 1027,6 hPa 0,0 l/m 0 min 0 min 68 W/m 16,1 km/h (3 Bft) 100,00 %
14.03.2022 17:32 12,9 C 12,2 C 8,3 C 68 % 1027,6 hPa 0,0 l/m 0 min 0 min 65 W/m 6,4 km/h (2 Bft) 100,00 %
14.03.2022 17:34 12,9 C 12,2 C 8,3 C 69 % 1027,6 hPa 0,0 l/m 0 min 0 min 50 W/m 9,7 km/h (2 Bft) 100,00 %
14.03.2022 17:36 12,8 C 12,2 C 8,3 C 69 % 1027,7 hPa 0,0 l/m 0 min 0 min 45 W/m 6,4 km/h (2 Bft) 100,00 %
14.03.2022 17:38 12,8 C 12,2 C 8,3 C 69 % 1027,7 hPa 0,0 l/m 0 min 0 min 40 W/m 6,4 km/h (2 Bft) 97,87 %
14.03.2022 17:40 12,8 C 12,2 C 7,8 C 69 % 1027,7 hPa 0,0 l/m 0 min 0 min 39 W/m 6,4 km/h (2 Bft) 100,00 %
14.03.2022 17:42 12,8 C 12,2 C 7,8 C 68 % 1027,7 hPa 0,0 l/m 0 min 0 min 41 W/m 6,4 km/h (2 Bft) 97,83 %
14.03.2022 17:44 12,7 C 12,2 C 7,8 C 68 % 1027,7 hPa 0,0 l/m 0 min 0 min 50 W/m 6,4 km/h (2 Bft) 100,00 %
14.03.2022 17:46 12,7 C 12,2 C 7,8 C 68 % 1027,7 hPa 0,0 l/m 0 min 0 min 60 W/m 6,4 km/h (2 Bft) 100,00 %
14.03.2022 17:48 12,6 C 12,2 C 7,8 C 68 % 1027,7 hPa 0,0 l/m 0 min 0 min 58 W/m 6,4 km/h (2 Bft) 97,87 %
14.03.2022 17:50 12,6 C 12,2 C 7,8 C 68 % 1027,8 hPa 0,0 l/m 0 min 0 min 54 W/m 6,4 km/h (2 Bft) 100,00 %
14.03.2022 17:52 12,6 C 12,2 C 7,8 C 68 % 1027,8 hPa 0,0 l/m 2 min 0 min 54 W/m 6,4 km/h (2 Bft) 97,87 %
14.03.2022 17:54 12,6 C 12,2 C 7,8 C 68 % 1027,9 hPa 0,0 l/m 2 min 0 min 52 W/m 9,7 km/h (2 Bft) 100,00 %
14.03.2022 17:56 12,6 C 12,2 C 7,8 C 69 % 1027,9 hPa 0,0 l/m 0 min 0 min 47 W/m 6,4 km/h (2 Bft) 100,00 %
14.03.2022 17:58 12,6 C 12,2 C 7,8 C 69 % 1028,0 hPa 0,0 l/m 0 min 0 min 39 W/m 6,4 km/h (2 Bft) 100,00 %
14.03.2022 18:00 12,5 C 12,2 C 7,8 C 68 % 1028,0 hPa 0,0 l/m 0 min 0 min 35 W/m 6,4 km/h (2 Bft) 100,00 %
14.03.2022 18:02 12,5 C 11,7 C 7,8 C 69 % 1028,0 hPa 0,0 l/m 0 min 0 min 30 W/m 3,2 km/h (1 Bft) 95,74 %
14.03.2022 18:04 12,5 C 11,7 C 7,8 C 69 % 1028,0 hPa 0,0 l/m 0 min 0 min 27 W/m 3,2 km/h (1 Bft) 100,00 %
14.03.2022 18:08 12,5 C 11,7 C 7,8 C 69 % 1028,1 hPa 0,0 l/m 0 min 0 min 22 W/m 9,7 km/h (2 Bft) 98,95 %
14.03.2022 18:10 12,4 C 11,7 C 7,8 C 70 % 1028,1 hPa 0,0 l/m 0 min 0 min 19 W/m 6,4 km/h (2 Bft) 97,87 %
14.03.2022 18:12 12,4 C 11,7 C 7,8 C 69 % 1028,2 hPa 0,0 l/m 0 min 0 min 17 W/m 6,4 km/h (2 Bft) 100,00 %
14.03.2022 18:14 12,4 C 11,7 C 7,8 C 70 % 1028,3 hPa 0,0 l/m 0 min 0 min 14 W/m 3,2 km/h (1 Bft) 97,87 %
14.03.2022 18:16 12,3 C 11,7 C 7,8 C 70 % 1028,3 hPa 0,0 l/m 0 min 0 min 14 W/m 6,4 km/h (2 Bft) 100,00 %
14.03.2022 18:18 12,3 C 11,7 C 7,8 C 70 % 1028,2 hPa 0,0 l/m 0 min 0 min 14 W/m 9,7 km/h (2 Bft) 100,00 %
14.03.2022 18:20 12,3 C 11,7 C 7,8 C 70 % 1028,2 hPa 0,0 l/m 0 min 0 min 12 W/m 3,2 km/h (1 Bft) 100,00 %
14.03.2022 18:22 12,3 C 11,1 C 7,8 C 70 % 1028,1 hPa 0,0 l/m 0 min 0 min 11 W/m 9,7 km/h (2 Bft) 95,74 %
14.03.2022 18:24 12,3 C 11,1 C 7,8 C 70 % 1028,1 hPa 0,0 l/m 0 min 0 min 12 W/m 6,4 km/h (2 Bft) 97,87 %
14.03.2022 18:26 12,3 C 11,1 C 7,2 C 70 % 1028,2 hPa 0,0 l/m 0 min 0 min 12 W/m 3,2 km/h (1 Bft) 97,87 %
14.03.2022 18:28 12,2 C 11,1 C 7,2 C 70 % 1028,2 hPa 0,0 l/m 0 min 0 min 10 W/m 3,2 km/h (1 Bft) 97,87 %
14.03.2022 18:30 12,2 C 11,1 C 7,2 C 70 % 1028,1 hPa 0,0 l/m 0 min 0 min 8 W/m 3,2 km/h (1 Bft) 97,83 %
14.03.2022 18:32 12,2 C 11,1 C 7,2 C 71 % 1028,1 hPa 0,0 l/m 0 min 0 min 5 W/m 3,2 km/h (1 Bft) 97,87 %
14.03.2022 18:34 12,2 C 11,1 C 7,2 C 71 % 1028,1 hPa 0,0 l/m 0 min 0 min 5 W/m 0,0 km/h (0 Bft) 97,87 %
14.03.2022 18:36 12,2 C 10,6 C 6,7 C 71 % 1028,2 hPa 0,0 l/m 0 min 0 min 2 W/m 0,0 km/h (0 Bft) 97,87 %
14.03.2022 18:38 12,1 C 10,6 C 6,7 C 71 % 1028,2 hPa 0,0 l/m 0 min 0 min 0 W/m 0,0 km/h (0 Bft) 97,87 %
14.03.2022 18:40 12,1 C 10,6 C 6,7 C 71 % 1028,2 hPa 0,0 l/m 0 min 0 min 0 W/m 0,0 km/h (0 Bft) 95,74 %
14.03.2022 18:42 12,0 C 10,6 C 6,7 C 71 % 1028,2 hPa 0,0 l/m 0 min 0 min 0 W/m 3,2 km/h (1 Bft) 93,48 %
14.03.2022 18:44 11,9 C 10,0 C 6,1 C 72 % 1028,2 hPa 0,0 l/m 0 min 0 min 0 W/m 0,0 km/h (0 Bft) 97,87 %
14.03.2022 18:46 11,9 C 10,0 C 6,1 C 72 % 1028,3 hPa 0,0 l/m 0 min 0 min 0 W/m 0,0 km/h (0 Bft) 95,74 %
14.03.2022 18:48 11,9 C 10,0 C 6,1 C 72 % 1028,2 hPa 0,0 l/m 0 min 0 min 0 W/m 0,0 km/h (0 Bft) 95,74 %
14.03.2022 18:50 11,8 C 9,4 C 5,6 C 72 % 1028,2 hPa 0,0 l/m 0 min 0 min 0 W/m 0,0 km/h (0 Bft) 95,74 %
14.03.2022 18:52 11,8 C 9,4 C 5,6 C 72 % 1028,2 hPa 0,0 l/m 0 min 0 min 0 W/m 0,0 km/h (0 Bft) 97,87 %
14.03.2022 18:54 11,8 C 9,4 C 5,6 C 72 % 1028,1 hPa 0,0 l/m 0 min 0 min 0 W/m 0,0 km/h (0 Bft) 95,65 %
14.03.2022 18:56 11,7 C 9,4 C 5,0 C 72 % 1028,2 hPa 0,0 l/m 0 min 0 min 0 W/m 0,0 km/h (0 Bft) 97,87 %
14.03.2022 18:58 11,7 C 8,9 C 5,0 C 73 % 1028,2 hPa 0,0 l/m 0 min 0 min 0 W/m 0,0 km/h (0 Bft) 91,49 %
14.03.2022 19:00 11,6 C 8,9 C 5,0 C 73 % 1028,2 hPa 0,0 l/m 0 min 0 min 0 W/m 0,0 km/h (0 Bft) 93,62 %
14.03.2022 19:02 11,5 C 8,9 C 5,0 C 73 % 1028,3 hPa 0,0 l/m 0 min 0 min 0 W/m 0,0 km/h (0 Bft) 91,49 %
14.03.2022 19:04 11,4 C 8,9 C 5,0 C 73 % 1028,3 hPa 0,0 l/m 0 min 0 min 0 W/m 0,0 km/h (0 Bft) 93,62 %
14.03.2022 19:06 11,4 C 8,9 C 4,4 C 73 % 1028,3 hPa 0,0 l/m 0 min 0 min 0 W/m 0,0 km/h (0 Bft) 95,65 %
14.03.2022 19:08 11,3 C 8,3 C 4,4 C 73 % 1028,3 hPa 0,0 l/m 0 min 0 min 0 W/m 0,0 km/h (0 Bft) 91,49 %
14.03.2022 19:10 11,2 C 8,3 C 4,4 C 73 % 1028,3 hPa 0,0 l/m 0 min 0 min 0 W/m 0,0 km/h (0 Bft) 93,62 %
14.03.2022 19:12 11,2 C 8,3 C 4,4 C 74 % 1028,3 hPa 0,0 l/m 0 min 0 min 0 W/m 0,0 km/h (0 Bft) 93,62 %
14.03.2022 19:14 11,1 C 8,3 C 4,4 C 74 % 1028,4 hPa 0,0 l/m 0 min 0 min 0 W/m 0,0 km/h (0 Bft) 91,49 %
14.03.2022 19:16 11,0 C 8,3 C 4,4 C 74 % 1028,5 hPa 0,0 l/m 0 min 0 min 0 W/m 0,0 km/h (0 Bft) 91,49 %
14.03.2022 19:18 10,9 C 8,3 C 4,4 C 74 % 1028,6 hPa 0,0 l/m 0 min 0 min 0 W/m 0,0 km/h (0 Bft) 95,65 %
14.03.2022 19:20 10,9 C 7,8 C 3,9 C 74 % 1028,6 hPa 0,0 l/m 0 min 0 min 0 W/m 0,0 km/h (0 Bft) 95,74 %
14.03.2022 19:22 10,8 C 7,8 C 3,9 C 74 % 1028,5 hPa 0,0 l/m 0 min 0 min 0 W/m 0,0 km/h (0 Bft) 95,74 %
14.03.2022 19:24 10,7 C 7,8 C 3,9 C 74 % 1028,6 hPa 0,0 l/m 0 min 0 min 0 W/m 0,0 km/h (0 Bft) 95,74 %
14.03.2022 19:26 10,7 C 7,8 C 3,9 C 75 % 1028,6 hPa 0,0 l/m 0 min 0 min 0 W/m 0,0 km/h (0 Bft) 93,62 %
14.03.2022 19:28 10,6 C 7,8 C 3,9 C 75 % 1028,7 hPa 0,0 l/m 0 min 0 min 0 W/m 0,0 km/h (0 Bft) 97,87 %
14.03.2022 19:30 10,5 C 7,8 C 3,9 C 75 % 1028,7 hPa 0,0 l/m 0 min 0 min 0 W/m 0,0 km/h (0 Bft) 95,65 %
14.03.2022 19:32 10,4 C 7,8 C 3,9 C 75 % 1028,7 hPa 0,0 l/m 0 min 0 min 0 W/m 0,0 km/h (0 Bft) 100,00 %
14.03.2022 19:34 10,3 C 7,8 C 3,9 C 75 % 1028,8 hPa 0,0 l/m 0 min 0 min 0 W/m 0,0 km/h (0 Bft) 97,87 %
14.03.2022 19:36 10,3 C 7,8 C 3,9 C 76 % 1028,7 hPa 0,0 l/m 0 min 0 min 0 W/m 0,0 km/h (0 Bft) 100,00 %
14.03.2022 19:38 10,2 C 7,8 C 3,9 C 76 % 1028,8 hPa 0,0 l/m 0 min 0 min 0 W/m 0,0 km/h (0 Bft) 100,00 %
14.03.2022 19:40 10,1 C 7,8 C 3,9 C 76 % 1028,8 hPa 0,0 l/m 0 min 0 min 0 W/m 3,2 km/h (1 Bft) 100,00 %
14.03.2022 19:42 10,0 C 7,8 C 3,3 C 77 % 1028,7 hPa 0,0 l/m 0 min 0 min 0 W/m 0,0 km/h (0 Bft) 100,00 %
14.03.2022 19:44 9,9 C 7,8 C 3,3 C 77 % 1028,7 hPa 0,0 l/m 0 min 0 min 0 W/m 0,0 km/h (0 Bft) 100,00 %
14.03.2022 19:46 9,9 C 7,2 C 3,3 C 77 % 1028,6 hPa 0,0 l/m 0 min 0 min 0 W/m 0,0 km/h (0 Bft) 97,87 %
14.03.2022 19:48 9,8 C 7,2 C 3,3 C 77 % 1028,6 hPa 0,0 l/m 0 min 0 min 0 W/m 0,0 km/h (0 Bft) 100,00 %
14.03.2022 19:50 9,8 C 7,2 C 3,3 C 77 % 1028,6 hPa 0,0 l/m 0 min 0 min 0 W/m 0,0 km/h (0 Bft) 100,00 %
14.03.2022 19:52 9,7 C 7,2 C 3,3 C 78 % 1028,6 hPa 0,0 l/m 0 min 0 min 0 W/m 0,0 km/h (0 Bft) 100,00 %
14.03.2022 19:54 9,7 C 7,2 C 3,3 C 78 % 1028,6 hPa 0,0 l/m 0 min 0 min 0 W/m 0,0 km/h (0 Bft) 100,00 %
14.03.2022 19:56 9,6 C 7,2 C 3,3 C 78 % 1028,5 hPa 0,0 l/m 0 min 0 min 0 W/m 0,0 km/h (0 Bft) 95,74 %
14.03.2022 19:58 9,6 C 7,2 C 3,3 C 78 % 1028,5 hPa 0,0 l/m 0 min 0 min 0 W/m 0,0 km/h (0 Bft) 100,00 %
14.03.2022 20:00 9,4 C 7,2 C 3,3 C 79 % 1028,5 hPa 0,0 l/m 0 min 0 min 0 W/m 0,0 km/h (0 Bft) 100,00 %
14.03.2022 20:02 9,4 C 7,2 C 3,3 C 79 % 1028,5 hPa 0,0 l/m 0 min 0 min 0 W/m 3,2 km/h (1 Bft) 97,87 %
14.03.2022 20:04 9,3 C 7,2 C 3,3 C 79 % 1028,5 hPa 0,0 l/m 0 min 0 min 0 W/m 0,0 km/h (0 Bft) 97,83 %
14.03.2022 20:06 9,3 C 7,2 C 3,3 C 79 % 1028,5 hPa 0,0 l/m 0 min 0 min 0 W/m 0,0 km/h (0 Bft) 97,87 %
14.03.2022 20:08 9,2 C 7,2 C 3,3 C 79 % 1028,6 hPa 0,0 l/m 0 min 0 min 0 W/m 0,0 km/h (0 Bft) 100,00 %
14.03.2022 20:10 9,2 C 7,2 C 3,3 C 79 % 1028,6 hPa 0,0 l/m 0 min 0 min 0 W/m 0,0 km/h (0 Bft) 100,00 %
14.03.2022 20:12 9,1 C 6,7 C 3,3 C 79 % 1028,6 hPa 0,0 l/m 0 min 0 min 0 W/m 0,0 km/h (0 Bft) 100,00 %
14.03.2022 20:14 9,1 C 6,7 C 2,8 C 79 % 1028,6 hPa 0,0 l/m 0 min 0 min 0 W/m 0,0 km/h (0 Bft) 100,00 %
14.03.2022 20:16 9,0 C 6,7 C 2,8 C 79 % 1028,6 hPa 0,0 l/m 0 min 0 min 0 W/m 0,0 km/h (0 Bft) 100,00 %
14.03.2022 20:18 8,9 C 6,7 C 2,8 C 80 % 1028,6 hPa 0,0 l/m 0 min 0 min 0 W/m 0,0 km/h (0 Bft) 100,00 %
14.03.2022 20:20 8,9 C 6,7 C 2,8 C 80 % 1028,5 hPa 0,0 l/m 0 min 0 min 0 W/m 0,0 km/h (0 Bft) 100,00 %
14.03.2022 20:22 8,8 C 6,7 C 2,8 C 80 % 1028,6 hPa 0,0 l/m 0 min 0 min 0 W/m 0,0 km/h (0 Bft) 100,00 %
14.03.2022 20:24 8,8 C 6,7 C 2,8 C 80 % 1028,6 hPa 0,0 l/m 0 min 0 min 0 W/m 0,0 km/h (0 Bft) 100,00 %
14.03.2022 20:26 8,7 C 6,7 C 2,8 C 80 % 1028,6 hPa 0,0 l/m 0 min 0 min 0 W/m 0,0 km/h (0 Bft) 100,00 %
14.03.2022 20:28 8,6 C 6,7 C 2,8 C 81 % 1028,7 hPa 0,0 l/m 0 min 0 min 0 W/m 0,0 km/h (0 Bft) 97,83 %
14.03.2022 20:30 8,6 C 6,7 C 2,8 C 81 % 1028,7 hPa 0,0 l/m 0 min 0 min 0 W/m 0,0 km/h (0 Bft) 100,00 %
14.03.2022 20:32 8,6 C 6,7 C 2,8 C 81 % 1028,7 hPa 0,0 l/m 0 min 0 min 0 W/m 0,0 km/h (0 Bft) 100,00 %
14.03.2022 20:34 8,5 C 6,7 C 2,8 C 81 % 1028,8 hPa 0,0 l/m 0 min 0 min 0 W/m 0,0 km/h (0 Bft) 100,00 %
14.03.2022 20:36 8,4 C 6,7 C 2,8 C 81 % 1028,8 hPa 0,0 l/m 0 min 0 min 0 W/m 0,0 km/h (0 Bft) 100,00 %
14.03.2022 20:38 8,4 C 6,7 C 2,8 C 81 % 1028,9 hPa 0,0 l/m 0 min 0 min 0 W/m 0,0 km/h (0 Bft) 95,74 %
14.03.2022 20:40 8,3 C 6,1 C 2,8 C 81 % 1028,9 hPa 0,0 l/m 0 min 0 min 0 W/m 0,0 km/h (0 Bft) 97,87 %
14.03.2022 20:42 8,3 C 6,1 C 2,8 C 82 % 1028,9 hPa 0,0 l/m 0 min 0 min 0 W/m 0,0 km/h (0 Bft) 97,83 %
14.03.2022 20:44 8,3 C 6,1 C 2,8 C 82 % 1029,0 hPa 0,0 l/m 0 min 0 min 0 W/m 0,0 km/h (0 Bft) 97,87 %
14.03.2022 20:46 8,2 C 6,1 C 2,8 C 81 % 1028,9 hPa 0,0 l/m 0 min 0 min 0 W/m 0,0 km/h (0 Bft) 95,74 %
14.03.2022 20:48 8,2 C 6,1 C 2,8 C 82 % 1029,0 hPa 0,0 l/m 0 min 0 min 0 W/m 0,0 km/h (0 Bft) 95,74 %
14.03.2022 20:50 8,1 C 6,7 C 2,8 C 81 % 1028,9 hPa 0,0 l/m 0 min 0 min 0 W/m 0,0 km/h (0 Bft) 93,62 %
14.03.2022 20:52 8,1 C 6,7 C 2,8 C 81 % 1028,9 hPa 0,0 l/m 0 min 0 min 0 W/m 0,0 km/h (0 Bft) 95,74 %
14.03.2022 20:54 8,0 C 6,7 C 2,8 C 81 % 1029,0 hPa 0,0 l/m 0 min 0 min 0 W/m 0,0 km/h (0 Bft) 95,65 %
14.03.2022 20:56 7,9 C 6,7 C 2,8 C 81 % 1028,9 hPa 0,0 l/m 0 min 0 min 0 W/m 0,0 km/h (0 Bft) 95,74 %
14.03.2022 20:58 7,9 C 6,7 C 2,8 C 82 % 1028,9 hPa 0,0 l/m 0 min 0 min 0 W/m 0,0 km/h (0 Bft) 95,74 %
14.03.2022 21:00 7,9 C 6,7 C 2,8 C 82 % 1028,9 hPa 0,0 l/m 0 min 0 min 0 W/m 0,0 km/h (0 Bft) 95,74 %
14.03.2022 21:02 7,8 C 6,7 C 2,8 C 82 % 1028,9 hPa 0,0 l/m 0 min 0 min 0 W/m 0,0 km/h (0 Bft) 95,74 %
14.03.2022 21:04 7,8 C 6,7 C 2,8 C 82 % 1028,9 hPa 0,0 l/m 0 min 0 min 0 W/m 0,0 km/h (0 Bft) 95,74 %
14.03.2022 21:06 7,8 C 6,7 C 2,8 C 82 % 1028,9 hPa 0,0 l/m 0 min 0 min 0 W/m 3,2 km/h (1 Bft) 97,83 %
14.03.2022 21:08 7,8 C 6,7 C 2,8 C 82 % 1028,9 hPa 0,0 l/m 0 min 0 min 0 W/m 3,2 km/h (1 Bft) 97,87 %
14.03.2022 21:10 7,7 C 6,7 C 2,8 C 83 % 1028,9 hPa 0,0 l/m 0 min 0 min 0 W/m 0,0 km/h (0 Bft) 97,87 %
14.03.2022 21:12 7,7 C 6,7 C 2,8 C 83 % 1028,9 hPa 0,0 l/m 0 min 0 min 0 W/m 0,0 km/h (0 Bft) 97,87 %
14.03.2022 21:14 7,7 C 6,7 C 2,8 C 83 % 1028,9 hPa 0,0 l/m 0 min 0 min 0 W/m 0,0 km/h (0 Bft) 97,87 %
14.03.2022 21:16 7,7 C 6,7 C 2,8 C 83 % 1028,9 hPa 0,0 l/m 0 min 0 min 0 W/m 0,0 km/h (0 Bft) 97,87 %
14.03.2022 21:18 7,7 C 6,7 C 2,8 C 83 % 1028,9 hPa 0,0 l/m 0 min 0 min 0 W/m 0,0 km/h (0 Bft) 97,83 %
14.03.2022 21:20 7,6 C 6,7 C 2,8 C 83 % 1029,0 hPa 0,0 l/m 0 min 0 min 0 W/m 0,0 km/h (0 Bft) 100,00 %
14.03.2022 21:22 7,6 C 6,7 C 2,8 C 84 % 1028,9 hPa 0,0 l/m 0 min 0 min 0 W/m 0,0 km/h (0 Bft) 97,87 %
14.03.2022 21:24 7,6 C 6,1 C 2,8 C 84 % 1028,9 hPa 0,0 l/m 0 min 0 min 0 W/m 0,0 km/h (0 Bft) 100,00 %
14.03.2022 21:26 7,6 C 6,1 C 2,8 C 84 % 1028,9 hPa 0,0 l/m 0 min 0 min 0 W/m 0,0 km/h (0 Bft) 97,87 %
14.03.2022 21:28 7,6 C 6,1 C 2,8 C 84 % 1028,9 hPa 0,0 l/m 0 min 0 min 0 W/m 0,0 km/h (0 Bft) 100,00 %
14.03.2022 21:30 7,6 C 6,1 C 2,8 C 84 % 1028,9 hPa 0,0 l/m 0 min 0 min 0 W/m 0,0 km/h (0 Bft) 100,00 %
14.03.2022 21:32 7,6 C 6,1 C 2,8 C 84 % 1029,0 hPa 0,0 l/m 0 min 0 min 0 W/m 0,0 km/h (0 Bft) 100,00 %
14.03.2022 21:34 7,6 C 6,1 C 2,8 C 84 % 1028,9 hPa 0,0 l/m 0 min 0 min 0 W/m 0,0 km/h (0 Bft) 100,00 %
14.03.2022 21:36 7,5 C 6,1 C 2,8 C 84 % 1029,0 hPa 0,0 l/m 0 min 0 min 0 W/m 0,0 km/h (0 Bft) 97,87 %
14.03.2022 21:38 7,4 C 5,6 C 2,2 C 84 % 1029,0 hPa 0,0 l/m 0 min 0 min 0 W/m 0,0 km/h (0 Bft) 100,00 %
14.03.2022 21:40 7,4 C 5,6 C 2,2 C 84 % 1029,0 hPa 0,0 l/m 0 min 0 min 0 W/m 0,0 km/h (0 Bft) 100,00 %
14.03.2022 21:42 7,4 C 5,6 C 2,2 C 84 % 1029,0 hPa 0,0 l/m 0 min 0 min 0 W/m 0,0 km/h (0 Bft) 100,00 %
14.03.2022 21:44 7,3 C 5,6 C 2,2 C 85 % 1029,0 hPa 0,0 l/m 0 min 0 min 0 W/m 0,0 km/h (0 Bft) 100,00 %
14.03.2022 21:46 7,3 C 5,6 C 2,2 C 85 % 1029,0 hPa 0,0 l/m 0 min 0 min 0 W/m 0,0 km/h (0 Bft) 97,87 %
14.03.2022 21:48 7,3 C 5,6 C 2,2 C 84 % 1028,9 hPa 0,0 l/m 0 min 0 min 0 W/m 3,2 km/h (1 Bft) 100,00 %
14.03.2022 21:50 7,2 C 6,1 C 2,2 C 85 % 1028,9 hPa 0,0 l/m 0 min 0 min 0 W/m 3,2 km/h (1 Bft) 100,00 %
14.03.2022 21:52 7,2 C 6,1 C 2,8 C 85 % 1028,9 hPa 0,0 l/m 0 min 0 min 0 W/m 3,2 km/h (1 Bft) 100,00 %
14.03.2022 21:54 7,2 C 6,1 C 2,8 C 85 % 1029,0 hPa 0,0 l/m 0 min 0 min 0 W/m 3,2 km/h (1 Bft) 100,00 %
14.03.2022 21:56 7,2 C 6,7 C 2,8 C 85 % 1029,0 hPa 0,0 l/m 0 min 0 min 0 W/m 6,4 km/h (2 Bft) 100,00 %
14.03.2022 21:58 7,2 C 6,7 C 3,3 C 85 % 1029,0 hPa 0,0 l/m 0 min 0 min 0 W/m 3,2 km/h (1 Bft) 100,00 %
14.03.2022 22:00 7,2 C 6,7 C 3,3 C 85 % 1029,1 hPa 0,0 l/m 0 min 0 min 0 W/m 6,4 km/h (2 Bft) 100,00 %
14.03.2022 22:02 7,2 C 6,7 C 3,3 C 86 % 1029,0 hPa 0,0 l/m 0 min 0 min 0 W/m 6,4 km/h (2 Bft) 97,87 %
14.03.2022 22:04 7,2 C 6,7 C 3,3 C 86 % 1029,0 hPa 0,0 l/m 0 min 0 min 0 W/m 6,4 km/h (2 Bft) 97,83 %
14.03.2022 22:06 7,3 C 6,7 C 3,3 C 86 % 1029,1 hPa 0,0 l/m 0 min 0 min 0 W/m 6,4 km/h (2 Bft) 95,74 %
14.03.2022 22:08 7,3 C 7,2 C 3,3 C 86 % 1029,1 hPa 0,0 l/m 0 min 0 min 0 W/m 12,9 km/h (3 Bft) 97,87 %
14.03.2022 22:10 7,3 C 7,2 C 3,9 C 86 % 1029,1 hPa 0,0 l/m 0 min 0 min 0 W/m 12,9 km/h (3 Bft) 97,87 %
14.03.2022 22:12 7,3 C 7,2 C 3,9 C 86 % 1029,1 hPa 0,0 l/m 0 min 0 min 0 W/m 6,4 km/h (2 Bft) 93,62 %
14.03.2022 22:14 7,3 C 7,2 C 3,9 C 86 % 1029,1 hPa 0,0 l/m 0 min 0 min 0 W/m 6,4 km/h (2 Bft) 97,87 %
14.03.2022 22:16 7,3 C 7,2 C 3,9 C 86 % 1029,1 hPa 0,0 l/m 0 min 0 min 0 W/m 3,2 km/h (1 Bft) 93,48 %
14.03.2022 22:18 7,3 C 7,2 C 3,9 C 86 % 1029,1 hPa 0,0 l/m 0 min 0 min 0 W/m 6,4 km/h (2 Bft) 95,74 %
14.03.2022 22:20 7,3 C 7,2 C 3,9 C 86 % 1029,1 hPa 0,0 l/m 0 min 0 min 0 W/m 6,4 km/h (2 Bft) 95,74 %
14.03.2022 22:22 7,4 C 6,7 C 3,9 C 86 % 1029,1 hPa 0,0 l/m 0 min 0 min 0 W/m 6,4 km/h (2 Bft) 95,74 %
14.03.2022 22:24 7,4 C 6,7 C 3,3 C 86 % 1029,1 hPa 0,0 l/m 0 min 0 min 0 W/m 3,2 km/h (1 Bft) 95,74 %
14.03.2022 22:26 7,4 C 6,7 C 3,3 C 86 % 1029,1 hPa 0,0 l/m 0 min 0 min 0 W/m 6,4 km/h (2 Bft) 95,74 %
14.03.2022 22:28 7,4 C 6,7 C 3,3 C 86 % 1029,1 hPa 0,0 l/m 0 min 0 min 0 W/m 3,2 km/h (1 Bft) 93,48 %
14.03.2022 22:30 7,4 C 6,7 C 3,3 C 86 % 1029,1 hPa 0,0 l/m 0 min 0 min 0 W/m 6,4 km/h (2 Bft) 93,62 %
14.03.2022 22:32 7,4 C 6,7 C 3,3 C 86 % 1029,0 hPa 0,0 l/m 0 min 0 min 0 W/m 6,4 km/h (2 Bft) 95,74 %
14.03.2022 22:34 7,5 C 6,7 C 3,3 C 86 % 1029,0 hPa 0,0 l/m 0 min 0 min 0 W/m 3,2 km/h (1 Bft) 95,74 %
14.03.2022 22:36 7,5 C 6,7 C 3,3 C 86 % 1029,0 hPa 0,0 l/m 0 min 0 min 0 W/m 3,2 km/h (1 Bft) 93,62 %
14.03.2022 22:38 7,5 C 6,7 C 3,3 C 86 % 1029,1 hPa 0,0 l/m 0 min 0 min 0 W/m 6,4 km/h (2 Bft) 93,62 %
14.03.2022 22:40 7,5 C 6,7 C 3,3 C 86 % 1029,1 hPa 0,0 l/m 0 min 0 min 0 W/m 6,4 km/h (2 Bft) 93,48 %
14.03.2022 22:42 7,5 C 6,7 C 3,3 C 86 % 1029,1 hPa 0,0 l/m 0 min 0 min 0 W/m 6,4 km/h (2 Bft) 95,74 %
14.03.2022 22:44 7,5 C 6,7 C 3,3 C 85 % 1029,2 hPa 0,0 l/m 0 min 0 min 0 W/m 6,4 km/h (2 Bft) 95,74 %
14.03.2022 22:46 7,5 C 6,7 C 3,3 C 85 % 1029,2 hPa 0,0 l/m 0 min 0 min 0 W/m 6,4 km/h (2 Bft) 93,62 %
14.03.2022 22:48 7,5 C 6,7 C 3,3 C 85 % 1029,2 hPa 0,0 l/m 0 min 0 min 0 W/m 6,4 km/h (2 Bft) 95,74 %
14.03.2022 22:50 7,5 C 6,7 C 3,3 C 85 % 1029,1 hPa 0,0 l/m 0 min 0 min 0 W/m 6,4 km/h (2 Bft) 93,62 %
14.03.2022 22:52 7,6 C 6,7 C 3,3 C 85 % 1029,1 hPa 0,0 l/m 0 min 0 min 0 W/m 6,4 km/h (2 Bft) 95,65 %
14.03.2022 22:54 7,6 C 6,7 C 3,3 C 85 % 1029,1 hPa 0,0 l/m 0 min 0 min 0 W/m 3,2 km/h (1 Bft) 97,87 %
14.03.2022 22:56 7,6 C 6,7 C 3,3 C 85 % 1029,1 hPa 0,0 l/m 0 min 0 min 0 W/m 3,2 km/h (1 Bft) 97,87 %
14.03.2022 22:58 7,6 C 6,7 C 3,3 C 85 % 1029,1 hPa 0,0 l/m 0 min 0 min 0 W/m 6,4 km/h (2 Bft) 97,87 %
14.03.2022 23:00 7,6 C 6,7 C 3,3 C 85 % 1029,1 hPa 0,0 l/m 0 min 0 min 0 W/m 6,4 km/h (2 Bft) 97,87 %
14.03.2022 23:02 7,6 C 6,7 C 3,3 C 85 % 1029,1 hPa 0,0 l/m 0 min 0 min 0 W/m 6,4 km/h (2 Bft) 95,74 %
14.03.2022 23:04 7,6 C 6,7 C 3,3 C 85 % 1029,0 hPa 0,0 l/m 0 min 0 min 0 W/m 3,2 km/h (1 Bft) 93,48 %
14.03.2022 23:06 7,6 C 6,7 C 3,3 C 85 % 1029,0 hPa 0,0 l/m 0 min 0 min 0 W/m 6,4 km/h (2 Bft) 97,87 %
14.03.2022 23:08 7,5 C 6,7 C 3,3 C 85 % 1029,1 hPa 0,0 l/m 0 min 0 min 0 W/m 6,4 km/h (2 Bft) 97,87 %
14.03.2022 23:10 7,5 C 6,7 C 3,3 C 85 % 1029,2 hPa 0,0 l/m 0 min 0 min 0 W/m 6,4 km/h (2 Bft) 95,74 %
14.03.2022 23:12 7,5 C 6,7 C 3,3 C 85 % 1029,2 hPa 0,0 l/m 0 min 0 min 0 W/m 6,4 km/h (2 Bft) 97,87 %
14.03.2022 23:14 7,5 C 6,7 C 3,3 C 85 % 1029,3 hPa 0,0 l/m 0 min 0 min 0 W/m 6,4 km/h (2 Bft) 97,87 %
14.03.2022 23:16 7,5 C 6,7 C 3,3 C 85 % 1029,2 hPa 0,0 l/m 0 min 0 min 0 W/m 6,4 km/h (2 Bft) 100,00 %
14.03.2022 23:18 7,5 C 6,7 C 3,3 C 85 % 1029,2 hPa 0,0 l/m 0 min 0 min 0 W/m 6,4 km/h (2 Bft) 100,00 %
14.03.2022 23:20 7,4 C 6,7 C 3,3 C 85 % 1029,2 hPa 0,0 l/m 0 min 0 min 0 W/m 6,4 km/h (2 Bft) 100,00 %
14.03.2022 23:22 7,4 C 6,7 C 3,3 C 85 % 1029,2 hPa 0,0 l/m 0 min 0 min 0 W/m 3,2 km/h (1 Bft) 100,00 %
14.03.2022 23:24 7,4 C 6,7 C 3,3 C 85 % 1029,2 hPa 0,0 l/m 0 min 0 min 0 W/m 3,2 km/h (1 Bft) 100,00 %
14.03.2022 23:26 7,4 C 6,7 C 3,3 C 85 % 1029,1 hPa 0,0 l/m 0 min 0 min 0 W/m 6,4 km/h (2 Bft) 100,00 %
14.03.2022 23:28 7,4 C 6,7 C 3,3 C 85 % 1029,2 hPa 0,0 l/m 0 min 0 min 0 W/m 12,9 km/h (3 Bft) 100,00 %
14.03.2022 23:30 7,4 C 6,7 C 3,3 C 85 % 1029,2 hPa 0,0 l/m 0 min 0 min 0 W/m 6,4 km/h (2 Bft) 100,00 %
14.03.2022 23:32 7,4 C 6,7 C 3,3 C 85 % 1029,2 hPa 0,0 l/m 0 min 0 min 0 W/m 6,4 km/h (2 Bft) 97,87 %
14.03.2022 23:34 7,4 C 6,7 C 3,3 C 85 % 1029,1 hPa 0,0 l/m 0 min 0 min 0 W/m 12,9 km/h (3 Bft) 100,00 %
14.03.2022 23:36 7,3 C 6,7 C 3,3 C 85 % 1029,0 hPa 0,0 l/m 0 min 0 min 0 W/m 6,4 km/h (2 Bft) 100,00 %
14.03.2022 23:38 7,3 C 6,7 C 3,3 C 85 % 1029,0 hPa 0,0 l/m 0 min 0 min 0 W/m 3,2 km/h (1 Bft) 100,00 %
14.03.2022 23:40 7,3 C 6,7 C 3,3 C 85 % 1029,0 hPa 0,0 l/m 0 min 0 min 0 W/m 6,4 km/h (2 Bft) 97,87 %
14.03.2022 23:42 7,3 C 6,1 C 3,3 C 85 % 1029,0 hPa 0,0 l/m 0 min 0 min 0 W/m 3,2 km/h (1 Bft) 100,00 %
14.03.2022 23:44 7,3 C 6,1 C 3,3 C 85 % 1029,0 hPa 0,0 l/m 0 min 0 min 0 W/m 3,2 km/h (1 Bft) 97,92 %
14.03.2022 23:46 7,3 C 6,1 C 3,3 C 85 % 1029,0 hPa 0,0 l/m 0 min 0 min 0 W/m 6,4 km/h (2 Bft) 100,00 %
14.03.2022 23:48 7,3 C 6,1 C 3,3 C 85 % 1029,0 hPa 0,0 l/m 0 min 0 min 0 W/m 6,4 km/h (2 Bft) 100,00 %
14.03.2022 23:50 7,3 C 6,1 C 3,3 C 85 % 1029,0 hPa 0,0 l/m 0 min 0 min 0 W/m 3,2 km/h (1 Bft) 100,00 %
14.03.2022 23:52 7,3 C 6,1 C 3,3 C 85 % 1029,0 hPa 0,0 l/m 0 min 0 min 0 W/m 6,4 km/h (2 Bft) 100,00 %
14.03.2022 23:54 7,2 C 6,1 C 3,3 C 85 % 1028,9 hPa 0,0 l/m 0 min 0 min 0 W/m 6,4 km/h (2 Bft) 100,00 %
14.03.2022 23:56 7,2 C 6,1 C 3,3 C 85 % 1028,9 hPa 0,0 l/m 0 min 0 min 0 W/m 6,4 km/h (2 Bft) 100,00 %
14.03.2022 23:58 7,2 C 6,1 C 2,8 C 85 % 1028,9 hPa 0,0 l/m 0 min 0 min 0 W/m 3,2 km/h (1 Bft) 100,00 %
_ Min-Zeit 21:50 21:38 21:38 16:52 00:00 - - - - 18:34 05:14
Minimum _ 7,2 C 5,6 C 2,2 C 66 % 1017,6 hPa - - - - 0,0 km/h (0 Bft) 50,00 %
_ Max-Zeit 16:20 16:15 11:18 05:26 23:14 03:10 16:15 00:08 11:18 12:54 00:00
Maximum _ 13,8 C 19,4 C 11,7 C 95 % 1029,3 hPa 0,2 l/m 5 min 4 min 664 W/m 32,2 km/h
S (5 Bft)
100,00 %
Durchschnitt _ 10,2 C 9,7 C 5,7 C 82 % 1024,7 hPa #3,6 l/m #3:32 h #38 min. 174 W/m 8,8 km/h (2 Bft) 97,59 %
© 2022 W. Hausmann